Observation data for Guadalupe Mtns Park on 01/14/2018      Previous  Date  Next       Current Mesonet Observations  Soil Data  Daily Summary Page  Observations in Plain Language
KGU1 140600Z 32001KT 08/M10 A3031 RMK A01 T00811096  RH  028%=      5-min Rain = 0
KGU1 140601Z 26002KT 08/M10 A3031 RMK A01 T00811097  RH  028%=      5-min Rain = 0
KGU1 140602Z 24001KT 08/M10 A303 RMK A01 T00821096  RH  027%=      5-min Rain = 0
KGU1 140603Z 32006G11KT 08/M10 A303 RMK A01 T00841097  RH  027%=      5-min Rain = 0
KGU1 140604Z 33006KT 09/M10 A303 RMK A01 T00891098  RH  026%=      5-min Rain = 0
KGU1 140605Z 31011KT 09/M10 A303 RMK A01 T00941097  RH  025%=      5-min Rain = 0
KGU1 140606Z 30010G15KT 10/M09 A303 RMK A01 T00981094  RH  025%=      5-min Rain = 0
KGU1 140607Z 31005KT 10/M10 A303 RMK A01 T00991095  RH  025%=      5-min Rain = 0
KGU1 140608Z 30006KT 10/M10 A303 RMK A01 T01001095  RH  025%=      5-min Rain = 0
KGU1 140609Z 32006KT 10/M09 A303 RMK A01 T01001094  RH  025%=      5-min Rain = 0
KGU1 140610Z 30007KT 10/M09 A303 RMK A01 T01011094  RH  025%=      5-min Rain = 0
KGU1 140611Z 31006KT 10/M09 A303 RMK A01 T01011093  RH  025%=      5-min Rain = 0
KGU1 140612Z 30008G14KT 10/M09 A303 RMK A01 T01011093  RH  025%=      5-min Rain = 0
KGU1 140613Z 31014KT 10/M09 A303 RMK A01 T01021093  RH  025%=      5-min Rain = 0
KGU1 140614Z 33011KT 10/M09 A3031 RMK A01 T01041093  RH  024%=      5-min Rain = 0
KGU1 140615Z 31009G14KT 11/M09 A303 RMK A01 T01051093  RH  024%=      5-min Rain = 0
KGU1 140616Z 32008KT 11/M09 A303 RMK A01 T01051094  RH  024%=      5-min Rain = 0
KGU1 140617Z 32009KT 11/M09 A3031 RMK A01 T01051094  RH  024%=      5-min Rain = 0
KGU1 140618Z 32009KT 11/M09 A3031 RMK A01 T01051093  RH  024%=      5-min Rain = 0
KGU1 140619Z 32007KT 11/M09 A303 RMK A01 T01051092  RH  024%=      5-min Rain = 0
KGU1 140620Z 31007G12KT 10/M09 A3031 RMK A01 T01041092  RH  025%=      5-min Rain = 0
KGU1 140621Z 33008KT 10/M09 A303 RMK A01 T01041093  RH  024%=      5-min Rain = 0
KGU1 140622Z 31007KT 11/M09 A303 RMK A01 T01051092  RH  024%=      5-min Rain = 0
KGU1 140623Z 35008KT 10/M09 A303 RMK A01 T01031092  RH  025%=      5-min Rain = 0
KGU1 140624Z 33006KT 10/M09 A303 RMK A01 T01031092  RH  025%=      5-min Rain = 0
KGU1 140625Z 31008KT 10/M09 A303 RMK A01 T01021092  RH  025%=      5-min Rain = 0
KGU1 140626Z 30007KT 10/M09 A303 RMK A01 T01021091  RH  025%=      5-min Rain = 0
KGU1 140627Z 30009KT 10/M09 A303 RMK A01 T01021090  RH  025%=      5-min Rain = 0
KGU1 140628Z 33005KT 10/M09 A303 RMK A01 T01011091  RH  025%=      5-min Rain = 0
KGU1 140629Z 31007KT 10/M09 A303 RMK A01 T01021091  RH  025%=      5-min Rain = 0
KGU1 140630Z 31008KT 10/M09 A303 RMK A01 T01021090  RH  025%=      5-min Rain = 0
KGU1 140631Z 32007KT 10/M09 A303 RMK A01 T01031090  RH  025%=      5-min Rain = 0
KGU1 140632Z 33007KT 10/M09 A303 RMK A01 T01031090  RH  025%=      5-min Rain = 0
KGU1 140633Z 31010KT 10/M09 A303 RMK A01 T01031089  RH  025%=      5-min Rain = 0
KGU1 140634Z 29007G12KT 10/M09 A303 RMK A01 T01021088  RH  026%=      5-min Rain = 0
KGU1 140635Z 30007KT 10/M09 A303 RMK A01 T01011088  RH  026%=      5-min Rain = 0
KGU1 140636Z 31006KT 10/M09 A303 RMK A01 T01001088  RH  026%=      5-min Rain = 0
KGU1 140637Z 30005KT 10/M09 A303 RMK A01 T01001088  RH  026%=      5-min Rain = 0
KGU1 140638Z 30006KT 10/M09 A303 RMK A01 T00991089  RH  026%=      5-min Rain = 0
KGU1 140639Z 29008G14KT 10/M09 A303 RMK A01 T01011089  RH  026%=      5-min Rain = 0
KGU1 140640Z 32009G14KT 10/M09 A303 RMK A01 T01001089  RH  026%=      5-min Rain = 0
KGU1 140641Z 30010KT 10/M09 A303 RMK A01 T01021089  RH  025%=      5-min Rain = 0
KGU1 140642Z 30009KT 10/M09 A303 RMK A01 T01021088  RH  026%=      5-min Rain = 0
KGU1 140643Z 29010KT 10/M09 A303 RMK A01 T01021089  RH  026%=      5-min Rain = 0
KGU1 140644Z 30009KT 10/M09 A303 RMK A01 T01011087  RH  026%=      5-min Rain = 0
KGU1 140645Z 29012G18KT 10/M09 A303 RMK A01 T01011088  RH  026%=      5-min Rain = 0
KGU1 140646Z 29012G17KT 10/M09 A303 RMK A01 T01011088  RH  026%=      5-min Rain = 0
KGU1 140647Z 30010KT 10/M09 A303 RMK A01 T01021088  RH  026%=      5-min Rain = 0
KGU1 140648Z 30012KT 10/M09 A303 RMK A01 T01021088  RH  026%=      5-min Rain = 0
KGU1 140649Z 30011KT 10/M09 A303 RMK A01 T01021087  RH  026%=      5-min Rain = 0
KGU1 140650Z 29009G14KT 10/M09 A303 RMK A01 T01021087  RH  026%=      5-min Rain = 0
KGU1 140651Z 29010KT 10/M09 A303 RMK A01 T01011088  RH  026%=      5-min Rain = 0
KGU1 140652Z 29008KT 10/M09 A303 RMK A01 T01001086  RH  026%=      5-min Rain = 0
KGU1 140653Z 29008KT 10/M09 A303 RMK A01 T00991087  RH  026%=      5-min Rain = 0
KGU1 140654Z 30008KT 10/M09 A303 RMK A01 T00991086  RH  026%=      5-min Rain = 0
KGU1 140655Z 30007KT 10/M09 A303 RMK A01 T00991087  RH  026%=      5-min Rain = 0
KGU1 140656Z 30007KT 10/M09 A303 RMK A01 T00991087  RH  026%=      5-min Rain = 0
KGU1 140657Z 31009KT 10/M09 A303 RMK A01 T00991088  RH  026%=      5-min Rain = 0
KGU1 140658Z 31006KT 10/M09 A303 RMK A01 T01001087  RH  026%=      5-min Rain = 0
KGU1 140659Z 30006KT 10/M09 A303 RMK A01 T01001088  RH  026%=      5-min Rain = 0
KGU1 140700Z 30006KT 10/M09 A303 RMK A01 T01001087  RH  026%=      5-min Rain = 0
KGU1 140701Z 28005KT 10/M09 A303 RMK A01 T00991087  RH  026%=      5-min Rain = 0
KGU1 140702Z 28004KT 10/M09 A303 RMK A01 T00991088  RH  026%=      5-min Rain = 0
KGU1 140703Z 27002KT 10/M09 A303 RMK A01 T00991088  RH  026%=      5-min Rain = 0
KGU1 140704Z 27003KT 10/M09 A303 RMK A01 T00991087  RH  026%=      5-min Rain = 0
KGU1 140705Z 30003KT 10/M09 A303 RMK A01 T00971088  RH  027%=      5-min Rain = 0
KGU1 140706Z 28005KT 10/M09 A303 RMK A01 T00971087  RH  027%=      5-min Rain = 0
KGU1 140707Z 21004KT 10/M09 A303 RMK A01 T00961086  RH  027%=      5-min Rain = 0
KGU1 140708Z 16004KT 09/M09 A303 RMK A01 T00921085  RH  028%=      5-min Rain = 0
KGU1 140709Z 17006G11KT 09/M09 A303 RMK A01 T00871087  RH  029%=      5-min Rain = 0
KGU1 140710Z 16004KT 08/M09 A303 RMK A01 T00831088  RH  029%=      5-min Rain = 0
KGU1 140711Z 18006KT 08/M09 A303 RMK A01 T00811088  RH  030%=      5-min Rain = 0
KGU1 140712Z 20007KT 08/M09 A303 RMK A01 T00781089  RH  030%=      5-min Rain = 0
KGU1 140713Z 18009KT 08/M09 A303 RMK A01 T00781091  RH  030%=      5-min Rain = 0
KGU1 140714Z 16008KT 08/M09 A303 RMK A01 T00781089  RH  030%=      5-min Rain = 0
KGU1 140715Z 15005KT 08/M09 A303 RMK A01 T00771089  RH  030%=      5-min Rain = 0
KGU1 140716Z 18008KT 08/M09 A303 RMK A01 T00761088  RH  031%=      5-min Rain = 0
KGU1 140717Z 17006KT 07/M09 A303 RMK A01 T00741087  RH  031%=      5-min Rain = 0
KGU1 140718Z 19006KT 07/M09 A303 RMK A01 T00721088  RH  031%=      5-min Rain = 0
KGU1 140719Z 20004KT 07/M09 A303 RMK A01 T00701088  RH  032%=      5-min Rain = 0
KGU1 140720Z 20005KT 07/M09 A303 RMK A01 T00691089  RH  032%=      5-min Rain = 0
KGU1 140721Z 23006KT 07/M09 A303 RMK A01 T00691088  RH  032%=      5-min Rain = 0
KGU1 140722Z 28004KT 07/M09 A3031 RMK A01 T00671088  RH  032%=      5-min Rain = 0
KGU1 140723Z 20002KT 07/M09 A3031 RMK A01 T00671089  RH  032%=      5-min Rain = 0
KGU1 140724Z 17005KT 07/M09 A303 RMK A01 T00661088  RH  033%=      5-min Rain = 0
KGU1 140725Z 19006KT 06/M09 A303 RMK A01 T00641088  RH  033%=      5-min Rain = 0
KGU1 140726Z 20006KT 06/M09 A303 RMK A01 T00631089  RH  033%=      5-min Rain = 0
KGU1 140727Z 16007KT 06/M09 A303 RMK A01 T00641091  RH  033%=      5-min Rain = 0
KGU1 140728Z 16007KT 07/M09 A303 RMK A01 T00651089  RH  033%=      5-min Rain = 0
KGU1 140729Z 16007KT 07/M09 A303 RMK A01 T00651088  RH  033%=      5-min Rain = 0
KGU1 140730Z 18006KT 07/M09 A303 RMK A01 T00661090  RH  032%=      5-min Rain = 0
KGU1 140731Z 19005KT 07/M09 A303 RMK A01 T00671090  RH  032%=      5-min Rain = 0
KGU1 140732Z 20005KT 07/M09 A303 RMK A01 T00671092  RH  031%=      5-min Rain = 0
KGU1 140733Z 22004KT 07/M09 A303 RMK A01 T00691091  RH  031%=      5-min Rain = 0
KGU1 140734Z 20004KT 07/M09 A303 RMK A01 T00691090  RH  031%=      5-min Rain = 0
KGU1 140735Z 19004KT 07/M09 A303 RMK A01 T00691091  RH  031%=      5-min Rain = 0
KGU1 140736Z 18006KT 07/M09 A303 RMK A01 T00701091  RH  031%=      5-min Rain = 0
KGU1 140737Z 17006KT 07/M09 A303 RMK A01 T00711092  RH  031%=      5-min Rain = 0
KGU1 140738Z 15005KT 07/M09 A303 RMK A01 T00731091  RH  031%=      5-min Rain = 0
KGU1 140739Z 16005KT 07/M09 A303 RMK A01 T00741091  RH  030%=      5-min Rain = 0
KGU1 140740Z 19004KT 08/M09 A303 RMK A01 T00751092  RH  030%=      5-min Rain = 0
KGU1 140741Z 23003KT 08/M09 A303 RMK A01 T00761091  RH  030%=      5-min Rain = 0
KGU1 140742Z 25002KT 08/M09 A303 RMK A01 T00761092  RH  030%=      5-min Rain = 0
KGU1 140743Z 17001KT 08/M09 A303 RMK A01 T00771094  RH  029%=      5-min Rain = 0
KGU1 140744Z 18004KT 08/M10 A303 RMK A01 T00801096  RH  028%=      5-min Rain = 0
KGU1 140745Z 28005KT 08/M09 A303 RMK A01 T00841093  RH  028%=      5-min Rain = 0
KGU1 140746Z 26005KT 09/M09 A303 RMK A01 T00881093  RH  027%=      5-min Rain = 0
KGU1 140747Z 20002KT 09/M09 A303 RMK A01 T00881093  RH  027%=      5-min Rain = 0
KGU1 140748Z 16002KT 09/M09 A3029 RMK A01 T00881094  RH  027%=      5-min Rain = 0
KGU1 140749Z 15001KT 09/M09 A303 RMK A01 T00881094  RH  027%=      5-min Rain = 0
KGU1 140750Z 16002KT 09/M09 A303 RMK A01 T00891093  RH  027%=      5-min Rain = 0
KGU1 140751Z 16002KT 09/M09 A303 RMK A01 T00871093  RH  027%=      5-min Rain = 0
KGU1 140752Z 18002KT 09/M09 A303 RMK A01 T00861092  RH  028%=      5-min Rain = 0
KGU1 140753Z 18002KT 09/M09 A303 RMK A01 T00851092  RH  028%=      5-min Rain = 0
KGU1 140754Z 17004KT 08/M09 A303 RMK A01 T00831091  RH  028%=      5-min Rain = 0
KGU1 140755Z 17006KT 08/M09 A303 RMK A01 T00811089  RH  029%=      5-min Rain = 0
KGU1 140756Z 17006KT 08/M09 A3029 RMK A01 T00781090  RH  030%=      5-min Rain = 0
KGU1 140757Z 18006KT 08/M09 A3029 RMK A01 T00771089  RH  030%=      5-min Rain = 0
KGU1 140758Z 18007KT 08/M09 A3029 RMK A01 T00771090  RH  030%=      5-min Rain = 0
KGU1 140759Z 19006KT 08/M09 A3029 RMK A01 T00761089  RH  030%=      5-min Rain = 0
KGU1 140800Z 20006KT 08/M09 A303 RMK A01 T00761089  RH  030%=      5-min Rain = 0
KGU1 140801Z 21005KT 08/M09 A303 RMK A01 T00751089  RH  031%=      5-min Rain = 0
KGU1 140802Z 19002KT 08/M09 A303 RMK A01 T00751089  RH  030%=      5-min Rain = 0
KGU1 140803Z 17003KT 08/M09 A303 RMK A01 T00751089  RH  030%=      5-min Rain = 0
KGU1 140804Z 17003KT 08/M09 A303 RMK A01 T00751088  RH  031%=      5-min Rain = 0
KGU1 140805Z 20004KT 07/M09 A303 RMK A01 T00741088  RH  031%=      5-min Rain = 0
KGU1 140806Z 23004KT 07/M09 A303 RMK A01 T00731090  RH  031%=      5-min Rain = 0
KGU1 140807Z 23004KT 07/M09 A303 RMK A01 T00741093  RH  030%=      5-min Rain = 0
KGU1 140808Z 18003KT 08/M10 A303 RMK A01 T00791097  RH  028%=      5-min Rain = 0
KGU1 140809Z 20004KT 08/M09 A303 RMK A01 T00831093  RH  028%=      5-min Rain = 0
KGU1 140810Z 21002KT 08/M09 A303 RMK A01 T00831093  RH  028%=      5-min Rain = 0
KGU1 140811Z 25001KT 08/M09 A303 RMK A01 T00841092  RH  028%=      5-min Rain = 0
KGU1 140812Z 28002KT 08/M09 A303 RMK A01 T00841091  RH  028%=      5-min Rain = 0
KGU1 140813Z 22003KT 08/M09 A303 RMK A01 T00831090  RH  029%=      5-min Rain = 0
KGU1 140814Z 20002KT 08/M09 A303 RMK A01 T00831091  RH  029%=      5-min Rain = 0
KGU1 140815Z 19004KT 08/M09 A303 RMK A01 T00831091  RH  029%=      5-min Rain = 0
KGU1 140816Z 21004KT 08/M09 A303 RMK A01 T00831091  RH  029%=      5-min Rain = 0
KGU1 140817Z 21005KT 08/M09 A303 RMK A01 T00821087  RH  030%=      5-min Rain = 0
KGU1 140818Z 21006KT 08/M09 A303 RMK A01 T00771085  RH  031%=      5-min Rain = 0
KGU1 140819Z 20009KT 07/M09 A303 RMK A01 T00741086  RH  032%=      5-min Rain = 0
KGU1 140820Z 20007KT 07/M09 A303 RMK A01 T00721086  RH  032%=      5-min Rain = 0
KGU1 140821Z 21008KT 07/M09 A303 RMK A01 T00701085  RH  033%=      5-min Rain = 0
KGU1 140822Z 21008KT 07/M09 A303 RMK A01 T00681087  RH  032%=      5-min Rain = 0
KGU1 140823Z 21007KT 07/M09 A303 RMK A01 T00691088  RH  032%=      5-min Rain = 0
KGU1 140824Z 23005KT 07/M09 A303 RMK A01 T00691089  RH  032%=      5-min Rain = 0
KGU1 140825Z 20005KT 07/M09 A303 RMK A01 T00691089  RH  032%=      5-min Rain = 0
KGU1 140826Z 21009KT 07/M09 A303 RMK A01 T00701088  RH  032%=      5-min Rain = 0
KGU1 140827Z 20008KT 07/M09 A303 RMK A01 T00711089  RH  031%=      5-min Rain = 0
KGU1 140828Z 20009KT 07/M09 A303 RMK A01 T00731088  RH  031%=      5-min Rain = 0
KGU1 140829Z 20008KT 07/M09 A3029 RMK A01 T00731088  RH  031%=      5-min Rain = 0
KGU1 140830Z 19008KT 07/M09 A3029 RMK A01 T00731089  RH  031%=      5-min Rain = 0
KGU1 140831Z 21009KT 07/M09 A3029 RMK A01 T00741089  RH  031%=      5-min Rain = 0
KGU1 140832Z 20009KT 08/M09 A3029 RMK A01 T00771090  RH  030%=      5-min Rain = 0
KGU1 140833Z 21007KT 08/M09 A3029 RMK A01 T00781088  RH  030%=      5-min Rain = 0
KGU1 140834Z 23005KT 08/M09 A3029 RMK A01 T00771088  RH  030%=      5-min Rain = 0
KGU1 140835Z 24004KT 08/M09 A3029 RMK A01 T00771088  RH  030%=      5-min Rain = 0
KGU1 140836Z 23004KT 08/M09 A303 RMK A01 T00761089  RH  030%=      5-min Rain = 0
KGU1 140837Z 20005KT 08/M09 A3029 RMK A01 T00771094  RH  029%=      5-min Rain = 0
KGU1 140838Z 23004KT 08/M10 A3029 RMK A01 T00811096  RH  028%=      5-min Rain = 0
KGU1 140839Z 22003KT 09/M09 A303 RMK A01 T00851094  RH  027%=      5-min Rain = 0
KGU1 140840Z 23002KT 09/M09 A303 RMK A01 T00851092  RH  028%=      5-min Rain = 0
KGU1 140841Z 24002KT 09/M09 A303 RMK A01 T00851092  RH  028%=      5-min Rain = 0
KGU1 140842Z 19004KT 08/M09 A303 RMK A01 T00841090  RH  028%=      5-min Rain = 0
KGU1 140843Z 22006KT 08/M09 A303 RMK A01 T00831089  RH  029%=      5-min Rain = 0
KGU1 140844Z 23004KT 08/M09 A303 RMK A01 T00811088  RH  029%=      5-min Rain = 0
KGU1 140845Z 20003KT 08/M09 A303 RMK A01 T00801088  RH  030%=      5-min Rain = 0
KGU1 140846Z 26004KT 08/M09 A303 RMK A01 T00791087  RH  030%=      5-min Rain = 0
KGU1 140847Z 24004KT 08/M09 A303 RMK A01 T00771088  RH  030%=      5-min Rain = 0
KGU1 140848Z 24004KT 08/M09 A303 RMK A01 T00761087  RH  031%=      5-min Rain = 0
KGU1 140849Z 25004KT 08/M09 A303 RMK A01 T00751087  RH  031%=      5-min Rain = 0
KGU1 140850Z 23003KT 07/M09 A303 RMK A01 T00741087  RH  031%=      5-min Rain = 0
KGU1 140851Z 20003KT 07/M09 A303 RMK A01 T00741088  RH  031%=      5-min Rain = 0
KGU1 140852Z 18006KT 07/M09 A303 RMK A01 T00741089  RH  031%=      5-min Rain = 0
KGU1 140853Z 21004KT 07/M09 A303 RMK A01 T00741087  RH  031%=      5-min Rain = 0
KGU1 140854Z 26006KT 07/M09 A303 RMK A01 T00721087  RH  032%=      5-min Rain = 0
KGU1 140855Z 24002KT 07/M09 A303 RMK A01 T00711088  RH  032%=      5-min Rain = 0
KGU1 140856Z 21003KT 07/M09 A303 RMK A01 T00711089  RH  031%=      5-min Rain = 0
KGU1 140857Z 17003KT 07/M09 A303 RMK A01 T00731091  RH  030%=      5-min Rain = 0
KGU1 140858Z 17004KT 08/M09 A303 RMK A01 T00751091  RH  030%=      5-min Rain = 0
KGU1 140859Z 21006KT 08/M09 A303 RMK A01 T00761089  RH  030%=      5-min Rain = 0
KGU1 140900Z 21005KT 08/M09 A303 RMK A01 T00761089  RH  030%=      5-min Rain = 0
KGU1 140901Z 22006KT 08/M09 A303 RMK A01 T00761087  RH  031%=      5-min Rain = 0
KGU1 140902Z 19006KT 07/M09 A303 RMK A01 T00741086  RH  031%=      5-min Rain = 0
KGU1 140903Z 20007KT 07/M09 A3029 RMK A01 T00731086  RH  032%=      5-min Rain = 0
KGU1 140904Z 21005KT 07/M09 A303 RMK A01 T00721086  RH  032%=      5-min Rain = 0
KGU1 140905Z 21003KT 07/M09 A303 RMK A01 T00711087  RH  032%=      5-min Rain = 0
KGU1 140906Z 18001KT 07/M09 A303 RMK A01 T00701087  RH  032%=      5-min Rain = 0
KGU1 140907Z 17002KT 07/M09 A303 RMK A01 T00691088  RH  032%=      5-min Rain = 0
KGU1 140908Z 17003KT 07/M09 A3029 RMK A01 T00691089  RH  032%=      5-min Rain = 0
KGU1 140909Z 18005KT 07/M09 A3029 RMK A01 T00691089  RH  032%=      5-min Rain = 0
KGU1 140910Z 20004KT 07/M09 A3029 RMK A01 T00691088  RH  032%=      5-min Rain = 0
KGU1 140911Z 27003KT 07/M09 A303 RMK A01 T00691087  RH  032%=      5-min Rain = 0
KGU1 140912Z 29003KT 07/M09 A3029 RMK A01 T00671088  RH  032%=      5-min Rain = 0
KGU1 140913Z 24003KT 07/M09 A3029 RMK A01 T00671088  RH  032%=      5-min Rain = 0
KGU1 140914Z 21005KT 07/M09 A3029 RMK A01 T00681088  RH  032%=      5-min Rain = 0
KGU1 140915Z 19004KT 07/M09 A3029 RMK A01 T00691088  RH  032%=      5-min Rain = 0
KGU1 140916Z 20004KT 07/M09 A3029 RMK A01 T00691086  RH  032%=      5-min Rain = 0
KGU1 140917Z 20006KT 07/M09 A3029 RMK A01 T00691087  RH  032%=      5-min Rain = 0
KGU1 140918Z 20007KT 07/M09 A3029 RMK A01 T00681087  RH  032%=      5-min Rain = 0
KGU1 140919Z 19006KT 07/M09 A3029 RMK A01 T00691087  RH  032%=      5-min Rain = 0
KGU1 140920Z 21003KT 07/M09 A3029 RMK A01 T00701086  RH  032%=      5-min Rain = 0
KGU1 140921Z 29004KT 07/M09 A3029 RMK A01 T00691086  RH  032%=      5-min Rain = 0
KGU1 140922Z 32005KT 07/M09 A3029 RMK A01 T00661086  RH  033%=      5-min Rain = 0
KGU1 140923Z 31007KT 06/M09 A3029 RMK A01 T00631086  RH  034%=      5-min Rain = 0
KGU1 140924Z 30005KT 07/M09 A3029 RMK A01 T00671088  RH  033%=      5-min Rain = 0
KGU1 140925Z 28001KT 07/M09 A3029 RMK A01 T00711089  RH  032%=      5-min Rain = 0
KGU1 140926Z 21001KT 07/M09 A3029 RMK A01 T00721089  RH  031%=      5-min Rain = 0
KGU1 140927Z 16002KT 07/M09 A3029 RMK A01 T00731087  RH  031%=      5-min Rain = 0
KGU1 140928Z 30003KT 07/M09 A3029 RMK A01 T00721087  RH  032%=      5-min Rain = 0
KGU1 140929Z 30001KT 07/M09 A3029 RMK A01 T00711089  RH  031%=      5-min Rain = 0
KGU1 140930Z 29005G10KT 07/M09 A3029 RMK A01 T00721089  RH  031%=      5-min Rain = 0
KGU1 140931Z 28006KT 07/M09 A3029 RMK A01 T00741090  RH  031%=      5-min Rain = 0
KGU1 140932Z 25005KT 08/M09 A3029 RMK A01 T00781090  RH  030%=      5-min Rain = 0
KGU1 140933Z 19004KT 08/M09 A3029 RMK A01 T00801092  RH  029%=      5-min Rain = 0
KGU1 140934Z 14006KT 08/M09 A3029 RMK A01 T00821092  RH  028%=      5-min Rain = 0
KGU1 140935Z 14005KT 08/M09 A3029 RMK A01 T00831089  RH  029%=      5-min Rain = 0
KGU1 140936Z 13004KT 08/M09 A3029 RMK A01 T00821088  RH  029%=      5-min Rain = 0
KGU1 140937Z 14002KT 08/M09 A3029 RMK A01 T00801088  RH  030%=      5-min Rain = 0
KGU1 140938Z 25004KT 08/M09 A3029 RMK A01 T00771088  RH  030%=      5-min Rain = 0
KGU1 140939Z 27007KT 07/M09 A3029 RMK A01 T00741087  RH  031%=      5-min Rain = 0
KGU1 140940Z 27008KT 07/M08 A3029 RMK A01 T00701084  RH  033%=      5-min Rain = 0
KGU1 140941Z 26006KT 07/M09 A3029 RMK A01 T00651085  RH  034%=      5-min Rain = 0
KGU1 140942Z 25005KT 06/M09 A3029 RMK A01 T00631085  RH  034%=      5-min Rain = 0
KGU1 140943Z 23003KT 06/M09 A3029 RMK A01 T00621085  RH  034%=      5-min Rain = 0
KGU1 140944Z 19004KT 06/M09 A3029 RMK A01 T00611086  RH  034%=      5-min Rain = 0
KGU1 140945Z 17004KT 06/M09 A3029 RMK A01 T00611088  RH  034%=      5-min Rain = 0
KGU1 140946Z 16006KT 06/M09 A3029 RMK A01 T00621090  RH  033%=      5-min Rain = 0
KGU1 140947Z 16005KT 07/M09 A3029 RMK A01 T00651091  RH  032%=      5-min Rain = 0
KGU1 140948Z 17006KT 07/M09 A3029 RMK A01 T00661092  RH  032%=      5-min Rain = 0
KGU1 140949Z 19006KT 07/M09 A303 RMK A01 T00671089  RH  032%=      5-min Rain = 0
KGU1 140950Z 23004KT 07/M09 A303 RMK A01 T00681090  RH  032%=      5-min Rain = 0
KGU1 140951Z 28004KT 07/M09 A303 RMK A01 T00671088  RH  033%=      5-min Rain = 0
KGU1 140952Z 29005KT 06/M09 A303 RMK A01 T00631088  RH  033%=      5-min Rain = 0
KGU1 140953Z 27006KT 06/M09 A303 RMK A01 T00601086  RH  035%=      5-min Rain = 0
KGU1 140954Z 28002KT 06/M09 A303 RMK A01 T00601089  RH  034%=      5-min Rain = 0
KGU1 140955Z 27002KT 06/M09 A303 RMK A01 T00621089  RH  033%=      5-min Rain = 0
KGU1 140956Z 28003KT 06/M09 A3029 RMK A01 T00631089  RH  033%=      5-min Rain = 0
KGU1 140957Z 30001KT 06/M09 A303 RMK A01 T00641089  RH  033%=      5-min Rain = 0
KGU1 140958Z 29000KT 07/M09 A3029 RMK A01 T00651090  RH  032%=      5-min Rain = 0
KGU1 140959Z 21001KT 07/M09 A3029 RMK A01 T00661091  RH  032%=      5-min Rain = 0
KGU1 141000Z 26004KT 07/M09 A3029 RMK A01 T00681091  RH  031%=      5-min Rain = 0
KGU1 141001Z 28008KT 07/M09 A303 RMK A01 T00681089  RH  032%=      5-min Rain = 0
KGU1 141002Z 26003KT 07/M09 A303 RMK A01 T00671090  RH  032%=      5-min Rain = 0
KGU1 141003Z 27002KT 07/M09 A3029 RMK A01 T00681090  RH  032%=      5-min Rain = 0
KGU1 141004Z 23002KT 07/M09 A3029 RMK A01 T00681090  RH  032%=      5-min Rain = 0
KGU1 141005Z 22002KT 07/M09 A3029 RMK A01 T00671089  RH  032%=      5-min Rain = 0
KGU1 141006Z 22003KT 07/M09 A3029 RMK A01 T00671090  RH  032%=      5-min Rain = 0
KGU1 141007Z 22004KT 07/M09 A3029 RMK A01 T00671090  RH  032%=      5-min Rain = 0
KGU1 141008Z 21006KT 07/M09 A3029 RMK A01 T00661092  RH  032%=      5-min Rain = 0
KGU1 141009Z 24007KT 07/M09 A3029 RMK A01 T00661091  RH  032%=      5-min Rain = 0
KGU1 141010Z 26005KT 07/M09 A3029 RMK A01 T00681092  RH  031%=      5-min Rain = 0
KGU1 141011Z 23007KT 07/M09 A3029 RMK A01 T00691091  RH  031%=      5-min Rain = 0
KGU1 141012Z 22009KT 07/M09 A3029 RMK A01 T00701089  RH  032%=      5-min Rain = 0
KGU1 141013Z 22006KT 07/M09 A3029 RMK A01 T00711088  RH  031%=      5-min Rain = 0
KGU1 141014Z 21005KT 07/M09 A3029 RMK A01 T00721089  RH  031%=      5-min Rain = 0
KGU1 141015Z 21006KT 07/M09 A3029 RMK A01 T00721090  RH  031%=      5-min Rain = 0
KGU1 141016Z 24007KT 07/M09 A3029 RMK A01 T00731089  RH  031%=      5-min Rain = 0
KGU1 141017Z 28005KT 07/M09 A3029 RMK A01 T00721088  RH  031%=      5-min Rain = 0
KGU1 141018Z 22006KT 07/M09 A3029 RMK A01 T00701088  RH  032%=      5-min Rain = 0
KGU1 141019Z 20007KT 07/M09 A3029 RMK A01 T00711091  RH  031%=      5-min Rain = 0
KGU1 141020Z 21007KT 07/M09 A3029 RMK A01 T00731089  RH  031%=      5-min Rain = 0
KGU1 141021Z 26004KT 07/M09 A3029 RMK A01 T00731088  RH  031%=      5-min Rain = 0
KGU1 141022Z 28007KT 07/M09 A3029 RMK A01 T00711088  RH  032%=      5-min Rain = 0
KGU1 141023Z 25006KT 07/M09 A3029 RMK A01 T00691088  RH  032%=      5-min Rain = 0
KGU1 141024Z 23006KT 07/M09 A3029 RMK A01 T00691090  RH  032%=      5-min Rain = 0
KGU1 141025Z 22009KT 07/M09 A3029 RMK A01 T00711090  RH  031%=      5-min Rain = 0
KGU1 141026Z 29009KT 07/M09 A3029 RMK A01 T00721089  RH  031%=      5-min Rain = 0
KGU1 141027Z 29012KT 07/M09 A3029 RMK A01 T00711090  RH  031%=      5-min Rain = 0
KGU1 141028Z 28011KT 08/M09 A3029 RMK A01 T00761090  RH  030%=      5-min Rain = 0
KGU1 141029Z 26011G16KT 08/M09 A3029 RMK A01 T00781091  RH  029%=      5-min Rain = 0
KGU1 141030Z 25013KT 08/M10 A3029 RMK A01 T00821095  RH  028%=      5-min Rain = 0
KGU1 141031Z 29010KT 09/M09 A3029 RMK A01 T00871094  RH  027%=      5-min Rain = 0
KGU1 141032Z 28011KT 09/M10 A3029 RMK A01 T00901095  RH  026%=      5-min Rain = 0
KGU1 141033Z 29011KT 09/M09 A3029 RMK A01 T00921094  RH  026%=      5-min Rain = 0
KGU1 141034Z 28012KT 09/M09 A3029 RMK A01 T00931094  RH  026%=      5-min Rain = 0
KGU1 141035Z 30010KT 09/M09 A3029 RMK A01 T00931093  RH  026%=      5-min Rain = 0
KGU1 141036Z 29011KT 09/M09 A3029 RMK A01 T00911092  RH  027%=      5-min Rain = 0
KGU1 141037Z 30013G19KT 09/M09 A3029 RMK A01 T00891093  RH  027%=      5-min Rain = 0
KGU1 141038Z 30017KT 09/M09 A3029 RMK A01 T00941094  RH  026%=      5-min Rain = 0
KGU1 141039Z 31017KT 10/M10 A3029 RMK A01 T00981097  RH  025%=      5-min Rain = 0
KGU1 141040Z 29016KT 10/M10 A3029 RMK A01 T01021097  RH  024%=      5-min Rain = 0
KGU1 141041Z 29015KT 10/M10 A3029 RMK A01 T01031096  RH  024%=      5-min Rain = 0
KGU1 141042Z 30015KT 10/M10 A3029 RMK A01 T01041096  RH  024%=      5-min Rain = 0
KGU1 141043Z 30014KT 10/M10 A3029 RMK A01 T01031096  RH  024%=      5-min Rain = 0
KGU1 141044Z 31015KT 10/M10 A3029 RMK A01 T01041097  RH  023%=      5-min Rain = 0
KGU1 141045Z 31012G18KT 11/M10 A3029 RMK A01 T01051097  RH  023%=      5-min Rain = 0
KGU1 141046Z 33011KT 10/M10 A3029 RMK A01 T01041098  RH  024%=      5-min Rain = 0
KGU1 141047Z 31013KT 10/M10 A3029 RMK A01 T01031095  RH  024%=      5-min Rain = 0
KGU1 141048Z 30017KT 10/M10 A3029 RMK A01 T01041095  RH  024%=      5-min Rain = 0
KGU1 141049Z 29014KT 11/M10 A3029 RMK A01 T01051096  RH  024%=      5-min Rain = 0
KGU1 141050Z 30015G21KT 11/M10 A3029 RMK A01 T01051096  RH  024%=      5-min Rain = 0
KGU1 141051Z 31013G19KT 11/M10 A3029 RMK A01 T01051096  RH  024%=      5-min Rain = 0
KGU1 141052Z 31011KT 10/M10 A3029 RMK A01 T01041096  RH  024%=      5-min Rain = 0
KGU1 141053Z 30013G18KT 11/M10 A3029 RMK A01 T01051096  RH  024%=      5-min Rain = 0
KGU1 141054Z 31014KT 10/M10 A3029 RMK A01 T01041096  RH  024%=      5-min Rain = 0
KGU1 141055Z 30012KT 10/M10 A3029 RMK A01 T01041096  RH  024%=      5-min Rain = 0
KGU1 141056Z 30010KT 10/M10 A3029 RMK A01 T01041096  RH  024%=      5-min Rain = 0
KGU1 141057Z 29014KT 10/M10 A3029 RMK A01 T01041096  RH  024%=      5-min Rain = 0
KGU1 141058Z 30011KT 10/M10 A3029 RMK A01 T01041096  RH  024%=      5-min Rain = 0
KGU1 141059Z 30010KT 10/M10 A3029 RMK A01 T01041098  RH  023%=      5-min Rain = 0
KGU1 141100Z 31009KT 11/M10 A3029 RMK A01 T01051096  RH  024%=      5-min Rain = 0
KGU1 141101Z 29010KT 10/M10 A3029 RMK A01 T01041096  RH  024%=      5-min Rain = 0
KGU1 141102Z 29010KT 10/M10 A3029 RMK A01 T01041096  RH  024%=      5-min Rain = 0
KGU1 141103Z 27006KT 10/M10 A3029 RMK A01 T01041096  RH  024%=      5-min Rain = 0
KGU1 141104Z 33003KT 10/M09 A3029 RMK A01 T01021091  RH  025%=      5-min Rain = 0
KGU1 141105Z 34001KT 10/M09 A3029 RMK A01 T00981089  RH  026%=      5-min Rain = 0
KGU1 141106Z 32006G12KT 10/M09 A3029 RMK A01 T00951093  RH  026%=      5-min Rain = 0
KGU1 141107Z 30010KT 10/M09 A3029 RMK A01 T00961094  RH  026%=      5-min Rain = 0
KGU1 141108Z 30008G13KT 10/M10 A3029 RMK A01 T00981095  RH  025%=      5-min Rain = 0
KGU1 141109Z 29010G15KT 10/M10 A3029 RMK A01 T00991096  RH  024%=      5-min Rain = 0
KGU1 141110Z 29011G16KT 10/M10 A3029 RMK A01 T01011096  RH  024%=      5-min Rain = 0
KGU1 141111Z 28007KT 10/M10 A3029 RMK A01 T01011095  RH  024%=      5-min Rain = 0
KGU1 141112Z 25007KT 10/M10 A3029 RMK A01 T01011096  RH  024%=      5-min Rain = 0
KGU1 141113Z 28005KT 10/M09 A303 RMK A01 T00991094  RH  025%=      5-min Rain = 0
KGU1 141114Z 27006KT 10/M10 A303 RMK A01 T00981095  RH  025%=      5-min Rain = 0
KGU1 141115Z 24005KT 10/M09 A3029 RMK A01 T00981094  RH  025%=      5-min Rain = 0
KGU1 141116Z 24006KT 10/M09 A303 RMK A01 T00971093  RH  026%=      5-min Rain = 0
KGU1 141117Z 25004KT 10/M09 A303 RMK A01 T00951092  RH  026%=      5-min Rain = 0
KGU1 141118Z 26004G9KT 09/M10 A303 RMK A01 T00931095  RH  026%=      5-min Rain = 0
KGU1 141119Z 29005G10KT 09/M09 A303 RMK A01 T00931094  RH  026%=      5-min Rain = 0
KGU1 141120Z 29004KT 09/M09 A303 RMK A01 T00931094  RH  026%=      5-min Rain = 0
KGU1 141121Z 31005G10KT 10/M10 A303 RMK A01 T00951098  RH  025%=      5-min Rain = 0
KGU1 141122Z 25004KT 10/M10 A3029 RMK A01 T00971097  RH  025%=      5-min Rain = 0
KGU1 141123Z 26005KT 10/M10 A3029 RMK A01 T00971096  RH  025%=      5-min Rain = 0
KGU1 141124Z 28006KT 10/M10 A303 RMK A01 T00971098  RH  024%=      5-min Rain = 0
KGU1 141125Z 27006KT 10/M10 A303 RMK A01 T00981097  RH  025%=      5-min Rain = 0
KGU1 141126Z 27006G11KT 10/M09 A303 RMK A01 T00961092  RH  026%=      5-min Rain = 0
KGU1 141127Z 20007KT 09/M09 A303 RMK A01 T00901086  RH  028%=      5-min Rain = 0
KGU1 141128Z 20006KT 08/M08 A303 RMK A01 T00811084  RH  030%=      5-min Rain = 0
KGU1 141129Z 21007KT 07/M09 A303 RMK A01 T00721085  RH  032%=      5-min Rain = 0
KGU1 141130Z 23007KT 07/M09 A303 RMK A01 T00671086  RH  033%=      5-min Rain = 0
KGU1 141131Z 20007KT 07/M09 A303 RMK A01 T00651088  RH  033%=      5-min Rain = 0
KGU1 141132Z 21008KT 06/M09 A303 RMK A01 T00631086  RH  034%=      5-min Rain = 0
KGU1 141133Z 23007KT 06/M09 A303 RMK A01 T00621088  RH  033%=      5-min Rain = 0
KGU1 141134Z 21005KT 06/M09 A303 RMK A01 T00611088  RH  034%=      5-min Rain = 0
KGU1 141135Z 19004KT 06/M09 A303 RMK A01 T00611088  RH  034%=      5-min Rain = 0
KGU1 141136Z 25005KT 06/M09 A303 RMK A01 T00611090  RH  033%=      5-min Rain = 0
KGU1 141137Z 27005KT 06/M09 A303 RMK A01 T00641092  RH  032%=      5-min Rain = 0
KGU1 141138Z 24003KT 07/M09 A303 RMK A01 T00691092  RH  031%=      5-min Rain = 0
KGU1 141139Z 22007KT 07/M09 A303 RMK A01 T00721094  RH  030%=      5-min Rain = 0
KGU1 141140Z 23004KT 08/M09 A303 RMK A01 T00761094  RH  029%=      5-min Rain = 0
KGU1 141141Z 28008G14KT 08/M10 A303 RMK A01 T00791095  RH  028%=      5-min Rain = 0
KGU1 141142Z 30011KT 09/M10 A303 RMK A01 T00861095  RH  027%=      5-min Rain = 0
KGU1 141143Z 31010KT 09/M10 A303 RMK A01 T00901098  RH  026%=      5-min Rain = 0
KGU1 141144Z 31009KT 10/M10 A303 RMK A01 T00961101  RH  024%=      5-min Rain = 0
KGU1 141145Z 31008KT 10/M10 A303 RMK A01 T00991100  RH  024%=      5-min Rain = 0
KGU1 141146Z 31008KT 10/M10 A303 RMK A01 T01001098  RH  024%=      5-min Rain = 0
KGU1 141147Z 30008KT 10/M10 A303 RMK A01 T01001096  RH  024%=      5-min Rain = 0
KGU1 141148Z 30009KT 10/M10 A303 RMK A01 T00991097  RH  024%=      5-min Rain = 0
KGU1 141149Z 30016KT 10/M10 A303 RMK A01 T00981097  RH  024%=      5-min Rain = 0
KGU1 141150Z 32013G18KT 10/M10 A303 RMK A01 T01011102  RH  023%=      5-min Rain = 0
KGU1 141151Z 30011G17KT 11/M10 A303 RMK A01 T01051100  RH  023%=      5-min Rain = 0
KGU1 141152Z 29014KT 11/M10 A303 RMK A01 T01051097  RH  023%=      5-min Rain = 0
KGU1 141153Z 30012KT 10/M10 A303 RMK A01 T01041096  RH  024%=      5-min Rain = 0
KGU1 141154Z 30010KT 10/M10 A303 RMK A01 T01031096  RH  024%=      5-min Rain = 0
KGU1 141155Z 30011KT 10/M10 A303 RMK A01 T01011097  RH  024%=      5-min Rain = 0
KGU1 141156Z 30014KT 10/M10 A303 RMK A01 T01001096  RH  024%=      5-min Rain = 0
KGU1 141157Z 30012KT 10/M10 A303 RMK A01 T01021097  RH  024%=      5-min Rain = 0
KGU1 141158Z 30015KT 10/M10 A303 RMK A01 T01031095  RH  024%=      5-min Rain = 0
KGU1 141159Z 29015KT 10/M10 A303 RMK A01 T01031096  RH  024%=      5-min Rain = 0
KGU1 141200Z 30017KT 10/M10 A303 RMK A01 T01031098  RH  024%=      5-min Rain = 0
KGU1 141201Z 30013KT 11/M10 A303 RMK A01 T01051099  RH  023%=      5-min Rain = 0
KGU1 141202Z 28009KT 11/M10 A303 RMK A01 T01051098  RH  023%=      5-min Rain = 0
KGU1 141203Z 29014KT 10/M10 A303 RMK A01 T01041096  RH  024%=      5-min Rain = 0
KGU1 141204Z 30014KT 10/M09 A303 RMK A01 T01011094  RH  024%=      5-min Rain = 0
KGU1 141205Z 30011G16KT 10/M10 A303 RMK A01 T01021096  RH  024%=      5-min Rain = 0
KGU1 141206Z 30017G22KT 10/M10 A303 RMK A01 T01011095  RH  024%=      5-min Rain = 0
KGU1 141207Z 29014KT 10/M10 A303 RMK A01 T01021096  RH  024%=      5-min Rain = 0
KGU1 141208Z 30012KT 10/M10 A303 RMK A01 T01031097  RH  024%=      5-min Rain = 0
KGU1 141209Z 30017G22KT 10/M10 A303 RMK A01 T01021095  RH  024%=      5-min Rain = 0
KGU1 141210Z 29017G22KT 10/M10 A303 RMK A01 T01031095  RH  024%=      5-min Rain = 0
KGU1 141211Z 29014KT 10/M10 A303 RMK A01 T01031095  RH  024%=      5-min Rain = 0
KGU1 141212Z 29010G15KT 10/M10 A303 RMK A01 T01031095  RH  024%=      5-min Rain = 0
KGU1 141213Z 30013KT 10/M09 A303 RMK A01 T01021094  RH  025%=      5-min Rain = 0
KGU1 141214Z 30015KT 10/M09 A303 RMK A01 T01011094  RH  025%=      5-min Rain = 0
KGU1 141215Z 29015KT 10/M09 A303 RMK A01 T01021093  RH  025%=      5-min Rain = 0
KGU1 141216Z 30019KT 10/M09 A303 RMK A01 T01011094  RH  025%=      5-min Rain = 0
KGU1 141217Z 29015KT 10/M10 A303 RMK A01 T01021095  RH  024%=      5-min Rain = 0
KGU1 141218Z 29014KT 10/M10 A303 RMK A01 T01031095  RH  024%=      5-min Rain = 0
KGU1 141219Z 30016KT 10/M09 A303 RMK A01 T01021094  RH  024%=      5-min Rain = 0
KGU1 141220Z 30016KT 10/M09 A303 RMK A01 T01021093  RH  025%=      5-min Rain = 0
KGU1 141221Z 29014KT 10/M09 A303 RMK A01 T01021094  RH  024%=      5-min Rain = 0
KGU1 141222Z 29013KT 10/M09 A303 RMK A01 T01021094  RH  024%=      5-min Rain = 0
KGU1 141223Z 30016KT 10/M09 A303 RMK A01 T01011094  RH  025%=      5-min Rain = 0
KGU1 141224Z 30017KT 10/M09 A303 RMK A01 T01021094  RH  025%=      5-min Rain = 0
KGU1 141225Z 30015KT 10/M10 A3031 RMK A01 T01021095  RH  024%=      5-min Rain = 0
KGU1 141226Z 29012KT 10/M10 A3031 RMK A01 T01021095  RH  024%=      5-min Rain = 0
KGU1 141227Z 30013G18KT 10/M09 A303 RMK A01 T01021094  RH  025%=      5-min Rain = 0
KGU1 141228Z 29016G22KT 10/M09 A303 RMK A01 T01011094  RH  025%=      5-min Rain = 0
KGU1 141229Z 29016KT 10/M09 A303 RMK A01 T01011094  RH  025%=      5-min Rain = 0
KGU1 141230Z 29016KT 10/M09 A303 RMK A01 T01011093  RH  025%=      5-min Rain = 0
KGU1 141231Z 29013KT 10/M09 A303 RMK A01 T01021094  RH  024%=      5-min Rain = 0
KGU1 141232Z 30018KT 10/M09 A303 RMK A01 T01021094  RH  025%=      5-min Rain = 0
KGU1 141233Z 30014KT 10/M09 A3031 RMK A01 T01031094  RH  024%=      5-min Rain = 0
KGU1 141234Z 30017KT 10/M09 A303 RMK A01 T01031094  RH  024%=      5-min Rain = 0
KGU1 141235Z 30015KT 10/M10 A3031 RMK A01 T01031095  RH  024%=      5-min Rain = 0
KGU1 141236Z 29015KT 10/M09 A3031 RMK A01 T01031094  RH  024%=      5-min Rain = 0
KGU1 141237Z 30015KT 10/M09 A3031 RMK A01 T01021094  RH  025%=      5-min Rain = 0
KGU1 141238Z 30014KT 10/M09 A3031 RMK A01 T01021094  RH  024%=      5-min Rain = 0
KGU1 141239Z 30016KT 10/M09 A3031 RMK A01 T01021093  RH  025%=      5-min Rain = 0
KGU1 141240Z 30016KT 10/M10 A3031 RMK A01 T01021095  RH  024%=      5-min Rain = 0
KGU1 141241Z 30013KT 10/M10 A3031 RMK A01 T01011095  RH  024%=      5-min Rain = 0
KGU1 141242Z 30015G20KT 10/M10 A3031 RMK A01 T01011095  RH  024%=      5-min Rain = 0
KGU1 141243Z 30014KT 10/M09 A3031 RMK A01 T01011094  RH  025%=      5-min Rain = 0
KGU1 141244Z 29015KT 10/M10 A3031 RMK A01 T01021095  RH  024%=      5-min Rain = 0
KGU1 141245Z 29014KT 10/M10 A3031 RMK A01 T01021095  RH  024%=      5-min Rain = 0
KGU1 141246Z 29015KT 10/M10 A3031 RMK A01 T01011095  RH  024%=      5-min Rain = 0
KGU1 141247Z 30016KT 10/M10 A3031 RMK A01 T01021096  RH  024%=      5-min Rain = 0
KGU1 141248Z 30013KT 10/M10 A3031 RMK A01 T01021096  RH  024%=      5-min Rain = 0
KGU1 141249Z 29015KT 10/M10 A3031 RMK A01 T01021095  RH  024%=      5-min Rain = 0
KGU1 141250Z 29015KT 10/M09 A3031 RMK A01 T01021094  RH  024%=      5-min Rain = 0
KGU1 141251Z 30015KT 10/M10 A3031 RMK A01 T01021096  RH  024%=      5-min Rain = 0
KGU1 141252Z 30013KT 10/M10 A3031 RMK A01 T01021096  RH  024%=      5-min Rain = 0
KGU1 141253Z 30012KT 10/M10 A3031 RMK A01 T01031096  RH  024%=      5-min Rain = 0
KGU1 141254Z 29014KT 10/M10 A3031 RMK A01 T01021095  RH  024%=      5-min Rain = 0
KGU1 141255Z 29016KT 10/M10 A3031 RMK A01 T01021096  RH  024%=      5-min Rain = 0
KGU1 141256Z 29015KT 10/M10 A3031 RMK A01 T01021095  RH  024%=      5-min Rain = 0
KGU1 141257Z 29013KT 10/M10 A3031 RMK A01 T01021095  RH  024%=      5-min Rain = 0
KGU1 141258Z 30014KT 10/M10 A3031 RMK A01 T01021095  RH  024%=      5-min Rain = 0
KGU1 141259Z 29013G18KT 10/M10 A3031 RMK A01 T01021095  RH  024%=      5-min Rain = 0
KGU1 141300Z 30015KT 10/M09 A3032 RMK A01 T01021094  RH  024%=      5-min Rain = 0
KGU1 141301Z 30011KT 10/M10 A3032 RMK A01 T01021095  RH  024%=      5-min Rain = 0
KGU1 141302Z 29013KT 10/M09 A3032 RMK A01 T01011094  RH  024%=      5-min Rain = 0
KGU1 141303Z 29009G14KT 10/M09 A3032 RMK A01 T01011094  RH  025%=      5-min Rain = 0
KGU1 141304Z 29015KT 10/M10 A3032 RMK A01 T01001095  RH  025%=      5-min Rain = 0
KGU1 141305Z 29015KT 10/M10 A3032 RMK A01 T01011095  RH  024%=      5-min Rain = 0
KGU1 141306Z 30013KT 10/M09 A3032 RMK A01 T01021094  RH  024%=      5-min Rain = 0
KGU1 141307Z 32012KT 10/M10 A3032 RMK A01 T01021095  RH  024%=      5-min Rain = 0
KGU1 141308Z 30010KT 10/M09 A3032 RMK A01 T01021094  RH  024%=      5-min Rain = 0
KGU1 141309Z 31008KT 10/M09 A3032 RMK A01 T01001094  RH  025%=      5-min Rain = 0
KGU1 141310Z 32010KT 10/M09 A3032 RMK A01 T00981094  RH  025%=      5-min Rain = 0
KGU1 141311Z 30011KT 10/M09 A3032 RMK A01 T00981093  RH  025%=      5-min Rain = 0
KGU1 141312Z 30015G21KT 10/M09 A3032 RMK A01 T00981094  RH  025%=      5-min Rain = 0
KGU1 141313Z 29016KT 10/M10 A3032 RMK A01 T01011095  RH  024%=      5-min Rain = 0
KGU1 141314Z 30016KT 10/M09 A3032 RMK A01 T01021094  RH  024%=      5-min Rain = 0
KGU1 141315Z 30013G18KT 10/M10 A3032 RMK A01 T01041096  RH  024%=      5-min Rain = 0
KGU1 141316Z 29014KT 10/M09 A3032 RMK A01 T01031094  RH  024%=      5-min Rain = 0
KGU1 141317Z 29010KT 10/M09 A3032 RMK A01 T01011093  RH  025%=      5-min Rain = 0
KGU1 141318Z 29015KT 10/M09 A3032 RMK A01 T01001093  RH  025%=      5-min Rain = 0
KGU1 141319Z 30015KT 10/M09 A3032 RMK A01 T01011094  RH  025%=      5-min Rain = 0
KGU1 141320Z 29013G18KT 10/M10 A3032 RMK A01 T01021095  RH  024%=      5-min Rain = 0
KGU1 141321Z 29012KT 10/M09 A3032 RMK A01 T01021093  RH  025%=      5-min Rain = 0
KGU1 141322Z 29012KT 10/M09 A3032 RMK A01 T01001093  RH  025%=      5-min Rain = 0
KGU1 141323Z 29011KT 10/M09 A3032 RMK A01 T00991093  RH  025%=      5-min Rain = 0
KGU1 141324Z 31010KT 10/M09 A3032 RMK A01 T00991093  RH  025%=      5-min Rain = 0
KGU1 141325Z 29014G19KT 10/M09 A3032 RMK A01 T00991093  RH  025%=      5-min Rain = 0
KGU1 141326Z 30012KT 10/M09 A3032 RMK A01 T00991093  RH  025%=      5-min Rain = 0
KGU1 141327Z 30012KT 10/M09 A3032 RMK A01 T00991092  RH  025%=      5-min Rain = 0
KGU1 141328Z 30013KT 10/M09 A3032 RMK A01 T00991092  RH  025%=      5-min Rain = 0
KGU1 141329Z 31011KT 10/M09 A3033 RMK A01 T00981094  RH  025%=      5-min Rain = 0
KGU1 141330Z 30010KT 10/M09 A3033 RMK A01 T00991093  RH  025%=      5-min Rain = 0
KGU1 141331Z 29010KT 10/M09 A3033 RMK A01 T00971092  RH  026%=      5-min Rain = 0
KGU1 141332Z 28014KT 10/M09 A3032 RMK A01 T00961092  RH  026%=      5-min Rain = 0
KGU1 141333Z 30013KT 10/M09 A3033 RMK A01 T00971092  RH  026%=      5-min Rain = 0
KGU1 141334Z 30011KT 10/M09 A3033 RMK A01 T00971092  RH  026%=      5-min Rain = 0
KGU1 141335Z 30011KT 10/M09 A3033 RMK A01 T00961092  RH  026%=      5-min Rain = 0
KGU1 141336Z 30011KT 10/M09 A3033 RMK A01 T00951093  RH  026%=      5-min Rain = 0
KGU1 141337Z 31010KT 10/M10 A3033 RMK A01 T00991096  RH  024%=      5-min Rain = 0
KGU1 141338Z 31007KT 10/M10 A3033 RMK A01 T01001096  RH  024%=      5-min Rain = 0
KGU1 141339Z 31006KT 10/M10 A3033 RMK A01 T01001095  RH  025%=      5-min Rain = 0
KGU1 141340Z 32006KT 10/M09 A3033 RMK A01 T00991093  RH  025%=      5-min Rain = 0
KGU1 141341Z 32007KT 10/M09 A3033 RMK A01 T00971092  RH  026%=      5-min Rain = 0
KGU1 141342Z 33007KT 10/M09 A3033 RMK A01 T00961092  RH  026%=      5-min Rain = 0
KGU1 141343Z 33006KT 10/M09 A3033 RMK A01 T00961093  RH  026%=      5-min Rain = 0
KGU1 141344Z 34007KT 10/M09 A3033 RMK A01 T00961094  RH  025%=      5-min Rain = 0
KGU1 141345Z 33005KT 10/M09 A3033 RMK A01 T00961094  RH  025%=      5-min Rain = 0
KGU1 141346Z 30007KT 10/M09 A3033 RMK A01 T00961092  RH  026%=      5-min Rain = 0
KGU1 141347Z 34006KT 10/M09 A3033 RMK A01 T00961092  RH  026%=      5-min Rain = 0
KGU1 141348Z 35007KT 10/M09 A3033 RMK A01 T00971094  RH  025%=      5-min Rain = 0
KGU1 141349Z 32007KT 10/M09 A3033 RMK A01 T00981094  RH  025%=      5-min Rain = 0
KGU1 141350Z 33009KT 10/M10 A3034 RMK A01 T00991095  RH  025%=      5-min Rain = 0
KGU1 141351Z 33008KT 10/M10 A3034 RMK A01 T01001096  RH  024%=      5-min Rain = 0
KGU1 141352Z 35005KT 10/M10 A3034 RMK A01 T01011100  RH  023%=      5-min Rain = 0
KGU1 141353Z 34006KT 10/M10 A3034 RMK A01 T01021097  RH  024%=      5-min Rain = 0
KGU1 141354Z 31008KT 10/M10 A3034 RMK A01 T01001095  RH  025%=      5-min Rain = 0
KGU1 141355Z 36010KT 10/M10 A3034 RMK A01 T01001095  RH  025%=      5-min Rain = 0
KGU1 141356Z 34007KT 10/M10 A3034 RMK A01 T01001095  RH  025%=      5-min Rain = 0
KGU1 141357Z 33008KT 10/M10 A3034 RMK A01 T01011096  RH  024%=      5-min Rain = 0
KGU1 141358Z 33006KT 10/M10 A3034 RMK A01 T01011097  RH  024%=      5-min Rain = 0
KGU1 141359Z 34006KT 10/M10 A3034 RMK A01 T01011098  RH  024%=      5-min Rain = 0
KGU1 141400Z 30006KT 10/M10 A3034 RMK A01 T00991095  RH  025%=      5-min Rain = 0
KGU1 141401Z 32005KT 10/M10 A3034 RMK A01 T00981095  RH  025%=      5-min Rain = 0
KGU1 141402Z 36004KT 10/M10 A3034 RMK A01 T00961098  RH  025%=      5-min Rain = 0
KGU1 141403Z 01004KT 09/M10 A3034 RMK A01 T00931099  RH  025%=      5-min Rain = 0
KGU1 141404Z 03003KT 09/M10 A3034 RMK A01 T00911100  RH  025%=      5-min Rain = 0
KGU1 141405Z 02003KT 09/M10 A3034 RMK A01 T00901101  RH  025%=      5-min Rain = 0
KGU1 141406Z 01004KT 09/M10 A3034 RMK A01 T00891101  RH  025%=      5-min Rain = 0
KGU1 141407Z 01004KT 09/M10 A3034 RMK A01 T00881102  RH  025%=      5-min Rain = 0
KGU1 141408Z 00004KT 09/M10 A3034 RMK A01 T00871101  RH  026%=      5-min Rain = 0
KGU1 141409Z 00004KT 09/M10 A3034 RMK A01 T00861102  RH  026%=      5-min Rain = 0
KGU1 141410Z 02004KT 09/M10 A3034 RMK A01 T00871103  RH  025%=      5-min Rain = 0
KGU1 141411Z 02004KT 09/M10 A3034 RMK A01 T00881104  RH  025%=      5-min Rain = 0
KGU1 141412Z 03004KT 09/M10 A3034 RMK A01 T00881104  RH  025%=      5-min Rain = 0
KGU1 141413Z 01003KT 09/M10 A3034 RMK A01 T00881103  RH  025%=      5-min Rain = 0
KGU1 141414Z 01003KT 09/M10 A3034 RMK A01 T00871103  RH  025%=      5-min Rain = 0
KGU1 141415Z 02003KT 09/M10 A3034 RMK A01 T00871103  RH  025%=      5-min Rain = 0
KGU1 141416Z 02003KT 09/M10 A3034 RMK A01 T00861104  RH  025%=      5-min Rain = 0
KGU1 141417Z 36002KT 09/M10 A3034 RMK A01 T00861103  RH  025%=      5-min Rain = 0
KGU1 141418Z 34002KT 09/M10 A3034 RMK A01 T00851102  RH  026%=      5-min Rain = 0
KGU1 141419Z 33002KT 08/M10 A3034 RMK A01 T00841102  RH  026%=      5-min Rain = 0
KGU1 141420Z 33002KT 08/M10 A3034 RMK A01 T00821101  RH  026%=      5-min Rain = 0
KGU1 141421Z 33002KT 08/M10 A3034 RMK A01 T00821102  RH  026%=      5-min Rain = 0
KGU1 141422Z 34001KT 08/M10 A3035 RMK A01 T00821102  RH  026%=      5-min Rain = 0
KGU1 141423Z 36002KT 08/M10 A3035 RMK A01 T00821102  RH  026%=      5-min Rain = 0
KGU1 141424Z 00002KT 08/M10 A3035 RMK A01 T00821102  RH  026%=      5-min Rain = 0
KGU1 141425Z 35002KT 08/M10 A3035 RMK A01 T00821102  RH  026%=      5-min Rain = 0
KGU1 141426Z 33002KT 08/M10 A3035 RMK A01 T00821102  RH  026%=      5-min Rain = 0
KGU1 141427Z 32002KT 08/M10 A3035 RMK A01 T00821102  RH  026%=      5-min Rain = 0
KGU1 141428Z 33002KT 08/M10 A3035 RMK A01 T00821102  RH  026%=      5-min Rain = 0
KGU1 141429Z 34002KT 08/M10 A3035 RMK A01 T00831102  RH  026%=      5-min Rain = 0
KGU1 141430Z 35003KT 08/M10 A3035 RMK A01 T00831102  RH  026%=      5-min Rain = 0
KGU1 141431Z 00003KT 08/M10 A3035 RMK A01 T00841100  RH  026%=      5-min Rain = 0
KGU1 141432Z 01003KT 08/M10 A3035 RMK A01 T00841100  RH  026%=      5-min Rain = 0
KGU1 141433Z 00003KT 08/M10 A3035 RMK A01 T00841100  RH  026%=      5-min Rain = 0
KGU1 141434Z 00003KT 08/M10 A3035 RMK A01 T00841099  RH  027%=      5-min Rain = 0
KGU1 141435Z 00002KT 09/M10 A3035 RMK A01 T00851100  RH  026%=      5-min Rain = 0
KGU1 141436Z 00002KT 09/M10 A3035 RMK A01 T00851099  RH  026%=      5-min Rain = 0
KGU1 141437Z 01002KT 09/M10 A3035 RMK A01 T00861099  RH  026%=      5-min Rain = 0
KGU1 141438Z 00001KT 09/M10 A3035 RMK A01 T00861100  RH  026%=      5-min Rain = 0
KGU1 141439Z 01001KT 09/M10 A3035 RMK A01 T00881099  RH  026%=      5-min Rain = 0
KGU1 141440Z 35001KT 09/M10 A3035 RMK A01 T00881100  RH  026%=      5-min Rain = 0
KGU1 141441Z 35002KT 09/M10 A3035 RMK A01 T00891100  RH  025%=      5-min Rain = 0
KGU1 141442Z 00002KT 09/M10 A3036 RMK A01 T00901100  RH  025%=      5-min Rain = 0
KGU1 141443Z 01001KT 09/M10 A3036 RMK A01 T00911099  RH  025%=      5-min Rain = 0
KGU1 141444Z 00000KT 09/M10 A3036 RMK A01 T00931098  RH  025%=      5-min Rain = 0
KGU1 141445Z 00000KT 10/M10 A3036 RMK A01 T00951101  RH  024%=      5-min Rain = 0
KGU1 141446Z 00000KT 10/M10 A3036 RMK A01 T00961101  RH  024%=      5-min Rain = 0
KGU1 141447Z 35000KT 10/M10 A3036 RMK A01 T00961101  RH  024%=      5-min Rain = 0
KGU1 141448Z 35000KT 10/M10 A3036 RMK A01 T00961100  RH  024%=      5-min Rain = 0
KGU1 141449Z 35000KT 10/M10 A3036 RMK A01 T00961098  RH  025%=      5-min Rain = 0
KGU1 141450Z 00000KT 10/M10 A3036 RMK A01 T00971097  RH  025%=      5-min Rain = 0
KGU1 141451Z 00000KT 10/M10 A3036 RMK A01 T00981096  RH  025%=      5-min Rain = 0
KGU1 141452Z 00000KT 10/M09 A3036 RMK A01 T00991091  RH  025%=      5-min Rain = 0
KGU1 141453Z 00000KT 10/M09 A3036 RMK A01 T00991092  RH  025%=      5-min Rain = 0
KGU1 141454Z 35000KT 10/M09 A3036 RMK A01 T00981092  RH  025%=      5-min Rain = 0
KGU1 141455Z 35000KT 10/M09 A3036 RMK A01 T00981092  RH  025%=      5-min Rain = 0
KGU1 141456Z 00000KT 10/M09 A3036 RMK A01 T00981091  RH  026%=      5-min Rain = 0
KGU1 141457Z 00000KT 10/M09 A3036 RMK A01 T00991089  RH  026%=      5-min Rain = 0
KGU1 141458Z 00000KT 10/M09 A3036 RMK A01 T01001090  RH  026%=      5-min Rain = 0
KGU1 141459Z 00000KT 10/M09 A3036 RMK A01 T01021094  RH  025%=      5-min Rain = 0
KGU1 141500Z 00000KT 10/M10 A3036 RMK A01 T01041095  RH  024%=      5-min Rain = 0
KGU1 141501Z 00000KT 11/M10 A3036 RMK A01 T01061095  RH  024%=      5-min Rain = 0
KGU1 141502Z 00000KT 11/M10 A3036 RMK A01 T01081097  RH  023%=      5-min Rain = 0
KGU1 141503Z 35000KT 11/M10 A3036 RMK A01 T01091099  RH  022%=      5-min Rain = 0
KGU1 141504Z 00000KT 11/M10 A3036 RMK A01 T01101099  RH  022%=      5-min Rain = 0
KGU1 141505Z 01000KT 11/M09 A3036 RMK A01 T01111094  RH  023%=      5-min Rain = 0
KGU1 141506Z 00000KT 11/M10 A3037 RMK A01 T01131095  RH  023%=      5-min Rain = 0
KGU1 141507Z 00000KT 11/M09 A3037 RMK A01 T01141092  RH  023%=      5-min Rain = 0
KGU1 141508Z 00000KT 12/M09 A3037 RMK A01 T01151091  RH  023%=      5-min Rain = 0
KGU1 141509Z 00000KT 12/M09 A3037 RMK A01 T01161091  RH  023%=      5-min Rain = 0
KGU1 141510Z 00000KT 12/M09 A3037 RMK A01 T01171092  RH  023%=      5-min Rain = 0
KGU1 141511Z 00000KT 12/M09 A3037 RMK A01 T01171094  RH  022%=      5-min Rain = 0
KGU1 141512Z 00000KT 12/M09 A3037 RMK A01 T01181093  RH  022%=      5-min Rain = 0
KGU1 141513Z 03000KT 12/M10 A3037 RMK A01 T01201099  RH  021%=      5-min Rain = 0
KGU1 141514Z 00000KT 12/M10 A3037 RMK A01 T01201100  RH  021%=      5-min Rain = 0
KGU1 141515Z 03000KT 12/M10 A3037 RMK A01 T01211100  RH  021%=      5-min Rain = 0
KGU1 141516Z 00000KT 12/M10 A3037 RMK A01 T01211098  RH  021%=      5-min Rain = 0
KGU1 141517Z 00000KT 12/M10 A3037 RMK A01 T01221097  RH  021%=      5-min Rain = 0
KGU1 141518Z 00000KT 12/M10 A3037 RMK A01 T01231097  RH  021%=      5-min Rain = 0
KGU1 141519Z 03000KT 13/M10 A3037 RMK A01 T01251097  RH  021%=      5-min Rain = 0
KGU1 141520Z 05000KT 13/M10 A3037 RMK A01 T01261095  RH  021%=      5-min Rain = 0
KGU1 141521Z 12000KT 13/M09 A3037 RMK A01 T01261093  RH  021%=      5-min Rain = 0
KGU1 141522Z 12000KT 12/M09 A3037 RMK A01 T01241094  RH  021%=      5-min Rain = 0
KGU1 141523Z 12000KT 12/M09 A3037 RMK A01 T01231094  RH  021%=      5-min Rain = 0
KGU1 141524Z 13002KT 12/M09 A3037 RMK A01 T01241089  RH  022%=      5-min Rain = 0
KGU1 141525Z 14003KT 12/M09 A3037 RMK A01 T01231090  RH  022%=      5-min Rain = 0
KGU1 141526Z 15003KT 12/M08 A3037 RMK A01 T01221084  RH  023%=      5-min Rain = 0
KGU1 141527Z 15002KT 12/M08 A3037 RMK A01 T01221083  RH  023%=      5-min Rain = 0
KGU1 141528Z 16003KT 12/M09 A3037 RMK A01 T01221088  RH  022%=      5-min Rain = 0
KGU1 141529Z 17003KT 12/M09 A3037 RMK A01 T01201087  RH  023%=      5-min Rain = 0
KGU1 141530Z 17004KT 12/M09 A3037 RMK A01 T01181088  RH  023%=      5-min Rain = 0
KGU1 141531Z 17004KT 12/M09 A3037 RMK A01 T01171087  RH  023%=      5-min Rain = 0
KGU1 141532Z 18004KT 12/M08 A3037 RMK A01 T01151083  RH  024%=      5-min Rain = 0
KGU1 141533Z 18004KT 11/M08 A3037 RMK A01 T01131082  RH  025%=      5-min Rain = 0
KGU1 141534Z 17005KT 11/M08 A3037 RMK A01 T01121083  RH  025%=      5-min Rain = 0
KGU1 141535Z 17004KT 11/M08 A3037 RMK A01 T01111081  RH  026%=      5-min Rain = 0
KGU1 141536Z 18004KT 11/M08 A3037 RMK A01 T01101084  RH  025%=      5-min Rain = 0
KGU1 141537Z 17004KT 11/M08 A3037 RMK A01 T01101083  RH  025%=      5-min Rain = 0
KGU1 141538Z 16003KT 11/M08 A3037 RMK A01 T01101080  RH  026%=      5-min Rain = 0
KGU1 141539Z 16003KT 11/M08 A3037 RMK A01 T01111080  RH  026%=      5-min Rain = 0
KGU1 141540Z 17003KT 11/M08 A3038 RMK A01 T01121083  RH  025%=      5-min Rain = 0
KGU1 141541Z 18004KT 11/M09 A3038 RMK A01 T01121087  RH  024%=      5-min Rain = 0
KGU1 141542Z 16004KT 11/M09 A3038 RMK A01 T01121087  RH  024%=      5-min Rain = 0
KGU1 141543Z 16004KT 11/M09 A3038 RMK A01 T01121085  RH  025%=      5-min Rain = 0
KGU1 141544Z 15004KT 11/M08 A3038 RMK A01 T01121082  RH  025%=      5-min Rain = 0
KGU1 141545Z 16003KT 11/M09 A3038 RMK A01 T01121086  RH  024%=      5-min Rain = 0
KGU1 141546Z 15004KT 11/M09 A3038 RMK A01 T01121085  RH  025%=      5-min Rain = 0
KGU1 141547Z 16004KT 11/M08 A3038 RMK A01 T01121083  RH  025%=      5-min Rain = 0
KGU1 141548Z 16003KT 11/M08 A3038 RMK A01 T01121081  RH  025%=      5-min Rain = 0
KGU1 141549Z 16003KT 11/M08 A3038 RMK A01 T01131082  RH  025%=      5-min Rain = 0
KGU1 141550Z 15003KT 12/M08 A3038 RMK A01 T01151081  RH  025%=      5-min Rain = 0
KGU1 141551Z 16003KT 12/M08 A3038 RMK A01 T01151081  RH  025%=      5-min Rain = 0
KGU1 141552Z 17002KT 12/M08 A3038 RMK A01 T01151083  RH  024%=      5-min Rain = 0
KGU1 141553Z 16003KT 12/M08 A3038 RMK A01 T01161084  RH  024%=      5-min Rain = 0
KGU1 141554Z 16003KT 12/M08 A3038 RMK A01 T01161084  RH  024%=      5-min Rain = 0
KGU1 141555Z 15003KT 12/M09 A3038 RMK A01 T01161085  RH  024%=      5-min Rain = 0
KGU1 141556Z 14003KT 12/M08 A3038 RMK A01 T01161082  RH  025%=      5-min Rain = 0
KGU1 141557Z 15004KT 12/M08 A3038 RMK A01 T01171080  RH  025%=      5-min Rain = 0
KGU1 141558Z 16004KT 12/M08 A3038 RMK A01 T01171082  RH  024%=      5-min Rain = 0
KGU1 141559Z 15004KT 12/M08 A3038 RMK A01 T01171077  RH  025%=      5-min Rain = 0
KGU1 141600Z 14003KT 12/M08 A3039 RMK A01 T01181081  RH  024%=      5-min Rain = 0
KGU1 141601Z 13004KT 12/M08 A3039 RMK A01 T01181082  RH  024%=      5-min Rain = 0
KGU1 141602Z 14004KT 12/M08 A3039 RMK A01 T01161082  RH  024%=      5-min Rain = 0
KGU1 141603Z 14005KT 12/M08 A3039 RMK A01 T01161079  RH  025%=      5-min Rain = 0
KGU1 141604Z 13004KT 12/M08 A3039 RMK A01 T01161082  RH  024%=      5-min Rain = 0
KGU1 141605Z 16003KT 12/M08 A3039 RMK A01 T01151081  RH  025%=      5-min Rain = 0
KGU1 141606Z 14004KT 12/M08 A3039 RMK A01 T01151080  RH  025%=      5-min Rain = 0
KGU1 141607Z 13003KT 11/M08 A3039 RMK A01 T01141081  RH  025%=      5-min Rain = 0
KGU1 141608Z 13004KT 11/M08 A3039 RMK A01 T01131080  RH  025%=      5-min Rain = 0
KGU1 141609Z 14004KT 11/M08 A3039 RMK A01 T01131079  RH  026%=      5-min Rain = 0
KGU1 141610Z 15004KT 11/M08 A3039 RMK A01 T01131081  RH  025%=      5-min Rain = 0
KGU1 141611Z 13004KT 11/M08 A3039 RMK A01 T01121080  RH  026%=      5-min Rain = 0
KGU1 141612Z 14005KT 11/M08 A3039 RMK A01 T01121077  RH  026%=      5-min Rain = 0
KGU1 141613Z 14004KT 11/M08 A3039 RMK A01 T01121078  RH  026%=      5-min Rain = 0
KGU1 141614Z 14005KT 11/M08 A3039 RMK A01 T01121077  RH  026%=      5-min Rain = 0
KGU1 141615Z 14005KT 11/M08 A3039 RMK A01 T01121077  RH  026%=      5-min Rain = 0
KGU1 141616Z 15005KT 11/M08 A3039 RMK A01 T01121079  RH  026%=      5-min Rain = 0
KGU1 141617Z 14004KT 11/M08 A3039 RMK A01 T01111077  RH  026%=      5-min Rain = 0
KGU1 141618Z 12004KT 11/M08 A304 RMK A01 T01111081  RH  025%=      5-min Rain = 0
KGU1 141619Z 13003KT 11/M08 A304 RMK A01 T01111081  RH  026%=      5-min Rain = 0
KGU1 141620Z 14002KT 11/M08 A304 RMK A01 T01111079  RH  026%=      5-min Rain = 0
KGU1 141621Z 13003KT 11/M08 A304 RMK A01 T01131078  RH  026%=      5-min Rain = 0
KGU1 141622Z 08002KT 11/M09 A304 RMK A01 T01141085  RH  024%=      5-min Rain = 0
KGU1 141623Z 14003KT 11/M08 A304 RMK A01 T01141078  RH  026%=      5-min Rain = 0
KGU1 141624Z 11005KT 12/M08 A304 RMK A01 T01151078  RH  025%=      5-min Rain = 0
KGU1 141625Z 09005KT 12/M08 A304 RMK A01 T01151081  RH  025%=      5-min Rain = 0
KGU1 141626Z 09002KT 11/M09 A304 RMK A01 T01141085  RH  024%=      5-min Rain = 0
KGU1 141627Z 06001KT 11/M08 A304 RMK A01 T01131081  RH  025%=      5-min Rain = 0
KGU1 141628Z 04002KT 11/M08 A304 RMK A01 T01141080  RH  025%=      5-min Rain = 0
KGU1 141629Z 09005KT 11/M09 A304 RMK A01 T01141085  RH  024%=      5-min Rain = 0
KGU1 141630Z 09004KT 11/M09 A304 RMK A01 T01131085  RH  024%=      5-min Rain = 0
KGU1 141631Z 10003KT 11/M08 A304 RMK A01 T01121083  RH  025%=      5-min Rain = 0
KGU1 141632Z 12004KT 11/M08 A304 RMK A01 T01131081  RH  025%=      5-min Rain = 0
KGU1 141633Z 10004KT 11/M09 A304 RMK A01 T01131086  RH  024%=      5-min Rain = 0
KGU1 141634Z 11003KT 11/M08 A304 RMK A01 T01131083  RH  025%=      5-min Rain = 0
KGU1 141635Z 11005KT 11/M08 A304 RMK A01 T01131082  RH  025%=      5-min Rain = 0
KGU1 141636Z 11006KT 11/M08 A304 RMK A01 T01131081  RH  025%=      5-min Rain = 0
KGU1 141637Z 10005KT 11/M08 A304 RMK A01 T01121082  RH  025%=      5-min Rain = 0
KGU1 141638Z 10005KT 11/M08 A304 RMK A01 T01131083  RH  025%=      5-min Rain = 0
KGU1 141639Z 08005KT 11/M09 A3041 RMK A01 T01131085  RH  024%=      5-min Rain = 0
KGU1 141640Z 07004KT 11/M08 A3041 RMK A01 T01121084  RH  025%=      5-min Rain = 0
KGU1 141641Z 07003KT 11/M09 A3041 RMK A01 T01131085  RH  024%=      5-min Rain = 0
KGU1 141642Z 10003KT 11/M08 A3041 RMK A01 T01141083  RH  025%=      5-min Rain = 0
KGU1 141643Z 10005KT 12/M08 A3041 RMK A01 T01151081  RH  025%=      5-min Rain = 0
KGU1 141644Z 12004KT 12/M08 A3041 RMK A01 T01151084  RH  024%=      5-min Rain = 0
KGU1 141645Z 13003KT 11/M08 A3041 RMK A01 T01141081  RH  025%=      5-min Rain = 0
KGU1 141646Z 08004KT 12/M08 A3041 RMK A01 T01161082  RH  024%=      5-min Rain = 0
KGU1 141647Z 09005KT 12/M08 A3041 RMK A01 T01161081  RH  025%=      5-min Rain = 0
KGU1 141648Z 10005KT 12/M08 A3041 RMK A01 T01161080  RH  025%=      5-min Rain = 0
KGU1 141649Z 10005KT 12/M08 A3041 RMK A01 T01171080  RH  025%=      5-min Rain = 0
KGU1 141650Z 12005KT 12/M08 A3041 RMK A01 T01171083  RH  024%=      5-min Rain = 0
KGU1 141651Z 12005KT 12/M08 A3041 RMK A01 T01171082  RH  024%=      5-min Rain = 0
KGU1 141652Z 12004KT 12/M08 A3041 RMK A01 T01161082  RH  024%=      5-min Rain = 0
KGU1 141653Z 12004KT 12/M08 A3041 RMK A01 T01171081  RH  025%=      5-min Rain = 0
KGU1 141654Z 12004KT 12/M08 A3041 RMK A01 T01161081  RH  025%=      5-min Rain = 0
KGU1 141655Z 11004KT 12/M08 A3041 RMK A01 T01171083  RH  024%=      5-min Rain = 0
KGU1 141656Z 09004KT 12/M08 A3041 RMK A01 T01171081  RH  025%=      5-min Rain = 0
KGU1 141657Z 10005KT 12/M09 A3041 RMK A01 T01171085  RH  024%=      5-min Rain = 0
KGU1 141658Z 09003KT 12/M09 A3041 RMK A01 T01151087  RH  024%=      5-min Rain = 0
KGU1 141659Z 07001KT 12/M08 A3041 RMK A01 T01151084  RH  024%=      5-min Rain = 0
KGU1 141700Z 06001KT 12/M09 A3041 RMK A01 T01161087  RH  024%=      5-min Rain = 0
KGU1 141701Z 04000KT 12/M09 A3041 RMK A01 T01161088  RH  023%=      5-min Rain = 0
KGU1 141702Z 06002KT 12/M08 A3041 RMK A01 T01171082  RH  024%=      5-min Rain = 0
KGU1 141703Z 09004KT 12/M08 A3041 RMK A01 T01191083  RH  024%=      5-min Rain = 0
KGU1 141704Z 10005KT 12/M08 A3041 RMK A01 T01191081  RH  024%=      5-min Rain = 0
KGU1 141705Z 07004KT 12/M08 A3041 RMK A01 T01191082  RH  024%=      5-min Rain = 0
KGU1 141706Z 03005KT 12/M08 A3041 RMK A01 T01191080  RH  024%=      5-min Rain = 0
KGU1 141707Z 02003KT 12/M08 A3041 RMK A01 T01191081  RH  024%=      5-min Rain = 0
KGU1 141708Z 02001KT 12/M08 A3041 RMK A01 T01211076  RH  025%=      5-min Rain = 0
KGU1 141709Z 08005KT 12/M08 A3041 RMK A01 T01231081  RH  024%=      5-min Rain = 0
KGU1 141710Z 10005KT 12/M08 A3041 RMK A01 T01221081  RH  024%=      5-min Rain = 0
KGU1 141711Z 11005KT 12/M08 A3041 RMK A01 T01211080  RH  024%=      5-min Rain = 0
KGU1 141712Z 08004KT 12/M08 A3041 RMK A01 T01211081  RH  024%=      5-min Rain = 0
KGU1 141713Z 08004KT 12/M08 A3041 RMK A01 T01201082  RH  024%=      5-min Rain = 0
KGU1 141714Z 10002KT 12/M08 A3041 RMK A01 T01191082  RH  024%=      5-min Rain = 0
KGU1 141715Z 10001KT 12/M08 A3041 RMK A01 T01201081  RH  024%=      5-min Rain = 0
KGU1 141716Z 08001KT 12/M08 A3041 RMK A01 T01211082  RH  024%=      5-min Rain = 0
KGU1 141717Z 11003KT 12/M08 A3041 RMK A01 T01211082  RH  024%=      5-min Rain = 0
KGU1 141718Z 11001KT 12/M08 A3041 RMK A01 T01221083  RH  023%=      5-min Rain = 0
KGU1 141719Z 09002KT 12/M08 A3041 RMK A01 T01231081  RH  024%=      5-min Rain = 0
KGU1 141720Z 09002KT 13/M08 A3041 RMK A01 T01261075  RH  024%=      5-min Rain = 0
KGU1 141721Z 06004KT 13/M08 A3041 RMK A01 T01271079  RH  023%=      5-min Rain = 0
KGU1 141722Z 11003KT 13/M08 A3041 RMK A01 T01271081  RH  023%=      5-min Rain = 0
KGU1 141723Z 10002KT 13/M08 A3041 RMK A01 T01271084  RH  023%=      5-min Rain = 0
KGU1 141724Z 10000KT 13/M08 A3041 RMK A01 T01271082  RH  023%=      5-min Rain = 0
KGU1 141725Z 10000KT 13/M08 A3041 RMK A01 T01281080  RH  023%=      5-min Rain = 0
KGU1 141726Z 10000KT 13/M08 A3041 RMK A01 T01301079  RH  023%=      5-min Rain = 0
KGU1 141727Z 08002KT 13/M08 A3041 RMK A01 T01321080  RH  022%=      5-min Rain = 0
KGU1 141728Z 05003KT 13/M08 A3041 RMK A01 T01311078  RH  023%=      5-min Rain = 0
KGU1 141729Z 06002KT 13/M08 A3041 RMK A01 T01301081  RH  023%=      5-min Rain = 0
KGU1 141730Z 06000KT 13/M08 A3041 RMK A01 T01301079  RH  023%=      5-min Rain = 0
KGU1 141731Z 10002KT 13/M08 A3041 RMK A01 T01301078  RH  023%=      5-min Rain = 0
KGU1 141732Z 10001KT 13/M08 A3041 RMK A01 T01311078  RH  023%=      5-min Rain = 0
KGU1 141733Z 08001KT 13/M08 A3041 RMK A01 T01321080  RH  022%=      5-min Rain = 0
KGU1 141734Z 08000KT 13/M08 A3041 RMK A01 T01321079  RH  023%=      5-min Rain = 0
KGU1 141735Z 09000KT 13/M08 A3041 RMK A01 T01321079  RH  023%=      5-min Rain = 0
KGU1 141736Z 11001KT 13/M08 A3041 RMK A01 T01341080  RH  022%=      5-min Rain = 0
KGU1 141737Z 11002KT 13/M08 A3041 RMK A01 T01341078  RH  022%=      5-min Rain = 0
KGU1 141738Z 09002KT 13/M08 A3041 RMK A01 T01341076  RH  023%=      5-min Rain = 0
KGU1 141739Z 07001KT 13/M08 A3041 RMK A01 T01341080  RH  022%=      5-min Rain = 0
KGU1 141740Z 09002KT 13/M08 A3041 RMK A01 T01331079  RH  022%=      5-min Rain = 0
KGU1 141741Z 11002KT 13/M08 A304 RMK A01 T01331077  RH  023%=      5-min Rain = 0
KGU1 141742Z 12004KT 13/M08 A304 RMK A01 T01331078  RH  023%=      5-min Rain = 0
KGU1 141743Z 12004KT 13/M08 A304 RMK A01 T01331078  RH  023%=      5-min Rain = 0
KGU1 141744Z 12002KT 13/M08 A304 RMK A01 T01321075  RH  023%=      5-min Rain = 0
KGU1 141745Z 12001KT 13/M07 A304 RMK A01 T01331074  RH  023%=      5-min Rain = 0
KGU1 141746Z 14002KT 14/M08 A304 RMK A01 T01351076  RH  023%=      5-min Rain = 0
KGU1 141747Z 09004KT 14/M08 A304 RMK A01 T01371076  RH  022%=      5-min Rain = 0
KGU1 141748Z 08004KT 14/M08 A304 RMK A01 T01361079  RH  022%=      5-min Rain = 0
KGU1 141749Z 06004KT 13/M08 A304 RMK A01 T01341076  RH  023%=      5-min Rain = 0
KGU1 141750Z 05002KT 13/M08 A304 RMK A01 T01331077  RH  023%=      5-min Rain = 0
KGU1 141751Z 02001KT 13/M08 A304 RMK A01 T01331079  RH  022%=      5-min Rain = 0
KGU1 141752Z 14002KT 14/M08 A304 RMK A01 T01351077  RH  022%=      5-min Rain = 0
KGU1 141753Z 14005KT 14/M08 A304 RMK A01 T01361079  RH  022%=      5-min Rain = 0
KGU1 141754Z 13003KT 14/M08 A304 RMK A01 T01351081  RH  022%=      5-min Rain = 0
KGU1 141755Z 16002KT 14/M08 A304 RMK A01 T01351077  RH  023%=      5-min Rain = 0
KGU1 141756Z 16002KT 14/M08 A304 RMK A01 T01361079  RH  022%=      5-min Rain = 0
KGU1 141757Z 11002KT 14/M08 A304 RMK A01 T01361079  RH  022%=      5-min Rain = 0
KGU1 141758Z 08003KT 14/M08 A304 RMK A01 T01361078  RH  022%=      5-min Rain = 0
KGU1 141759Z 05004KT 14/M08 A304 RMK A01 T01361078  RH  022%=      5-min Rain = 0
KGU1 141800Z 09003KT 13/M08 A304 RMK A01 T01341079  RH  022%=      5-min Rain = 0
KGU1 141801Z 09005KT 13/M08 A304 RMK A01 T01341076  RH  023%=      5-min Rain = 0
KGU1 141802Z 08003KT 13/M08 A304 RMK A01 T01341081  RH  022%=      5-min Rain = 0
KGU1 141803Z 10007KT 13/M08 A304 RMK A01 T01321079  RH  023%=      5-min Rain = 0
KGU1 141804Z 08006KT 13/M08 A304 RMK A01 T01321078  RH  023%=      5-min Rain = 0
KGU1 141805Z 11004KT 13/M08 A304 RMK A01 T01311079  RH  023%=      5-min Rain = 0
KGU1 141806Z 10005KT 13/M08 A304 RMK A01 T01321079  RH  023%=      5-min Rain = 0
KGU1 141807Z 10005KT 13/M08 A304 RMK A01 T01311079  RH  023%=      5-min Rain = 0
KGU1 141808Z 12004KT 13/M08 A304 RMK A01 T01311079  RH  023%=      5-min Rain = 0
KGU1 141809Z 10006KT 13/M08 A304 RMK A01 T01321079  RH  023%=      5-min Rain = 0
KGU1 141810Z 11006KT 13/M08 A304 RMK A01 T01311079  RH  023%=      5-min Rain = 0
KGU1 141811Z 11006KT 13/M08 A304 RMK A01 T01301082  RH  022%=      5-min Rain = 0
KGU1 141812Z 12004KT 13/M08 A304 RMK A01 T01291082  RH  023%=      5-min Rain = 0
KGU1 141813Z 15003KT 13/M08 A304 RMK A01 T01281081  RH  023%=      5-min Rain = 0
KGU1 141814Z 10002KT 13/M08 A304 RMK A01 T01301079  RH  023%=      5-min Rain = 0
KGU1 141815Z 11005KT 13/M08 A304 RMK A01 T01311078  RH  023%=      5-min Rain = 0
KGU1 141816Z 14007KT 13/M08 A304 RMK A01 T01341076  RH  023%=      5-min Rain = 0
KGU1 141817Z 11004KT 14/M08 A304 RMK A01 T01361075  RH  023%=      5-min Rain = 0
KGU1 141818Z 09004KT 14/M08 A3039 RMK A01 T01381078  RH  022%=      5-min Rain = 0
KGU1 141819Z 08001KT 14/M08 A3039 RMK A01 T01381083  RH  021%=      5-min Rain = 0
KGU1 141820Z 08002KT 14/M08 A3039 RMK A01 T01381081  RH  021%=      5-min Rain = 0
KGU1 141821Z 10005KT 14/M08 A3039 RMK A01 T01381077  RH  022%=      5-min Rain = 0
KGU1 141822Z 13003KT 14/M08 A3039 RMK A01 T01391076  RH  022%=      5-min Rain = 0
KGU1 141823Z 09006KT 14/M08 A3039 RMK A01 T01391080  RH  021%=      5-min Rain = 0
KGU1 141824Z 11006KT 14/M08 A3039 RMK A01 T01371077  RH  022%=      5-min Rain = 0
KGU1 141825Z 14004KT 14/M08 A3039 RMK A01 T01361078  RH  022%=      5-min Rain = 0
KGU1 141826Z 13005KT 14/M08 A3039 RMK A01 T01371078  RH  022%=      5-min Rain = 0
KGU1 141827Z 10005KT 14/M08 A3039 RMK A01 T01381077  RH  022%=      5-min Rain = 0
KGU1 141828Z 07005KT 14/M08 A3039 RMK A01 T01381080  RH  022%=      5-min Rain = 0
KGU1 141829Z 09004KT 14/M08 A3039 RMK A01 T01371076  RH  022%=      5-min Rain = 0
KGU1 141830Z 09003KT 14/M08 A3039 RMK A01 T01391076  RH  022%=      5-min Rain = 0
KGU1 141831Z 12003KT 14/M08 A3039 RMK A01 T01401080  RH  021%=      5-min Rain = 0
KGU1 141832Z 14003KT 14/M08 A3039 RMK A01 T01411082  RH  021%=      5-min Rain = 0
KGU1 141833Z 16002KT 14/M08 A3039 RMK A01 T01391083  RH  021%=      5-min Rain = 0
KGU1 141834Z 15002KT 14/M08 A3039 RMK A01 T01391084  RH  021%=      5-min Rain = 0
KGU1 141835Z 13002KT 14/M08 A3039 RMK A01 T01381082  RH  021%=      5-min Rain = 0
KGU1 141836Z 12004KT 14/M08 A3039 RMK A01 T01371082  RH  021%=      5-min Rain = 0
KGU1 141837Z 14002KT 14/M08 A3039 RMK A01 T01371081  RH  022%=      5-min Rain = 0
KGU1 141838Z 09005KT 14/M08 A3039 RMK A01 T01381078  RH  022%=      5-min Rain = 0
KGU1 141839Z 14005KT 14/M07 A3039 RMK A01 T01371066  RH  024%=      5-min Rain = 0
KGU1 141840Z 15006KT 14/M07 A3039 RMK A01 T01371066  RH  024%=      5-min Rain = 0
KGU1 141841Z 15005KT 14/M07 A3039 RMK A01 T01361068  RH  024%=      5-min Rain = 0
KGU1 141842Z 15004KT 13/M07 A3039 RMK A01 T01341066  RH  025%=      5-min Rain = 0
KGU1 141843Z 15004KT 13/M07 A3039 RMK A01 T01341068  RH  024%=      5-min Rain = 0
KGU1 141844Z 10005KT 13/M08 A3039 RMK A01 T01341079  RH  022%=      5-min Rain = 0
KGU1 141845Z 08007G12KT 13/M08 A3038 RMK A01 T01331078  RH  023%=      5-min Rain = 0
KGU1 141846Z 08008KT 13/M07 A3039 RMK A01 T01331071  RH  024%=      5-min Rain = 0
KGU1 141847Z 09007KT 13/M07 A3038 RMK A01 T01321073  RH  024%=      5-min Rain = 0
KGU1 141848Z 09008KT 13/M07 A3038 RMK A01 T01311069  RH  025%=      5-min Rain = 0
KGU1 141849Z 08009KT 13/M07 A3038 RMK A01 T01321070  RH  024%=      5-min Rain = 0
KGU1 141850Z 10008KT 13/M07 A3038 RMK A01 T01311072  RH  024%=      5-min Rain = 0
KGU1 141851Z 09007KT 13/M07 A3038 RMK A01 T01291071  RH  024%=      5-min Rain = 0
KGU1 141852Z 10004KT 13/M07 A3038 RMK A01 T01291070  RH  025%=      5-min Rain = 0
KGU1 141853Z 07003KT 13/M07 A3038 RMK A01 T01311070  RH  024%=      5-min Rain = 0
KGU1 141854Z 06007KT 13/M07 A3038 RMK A01 T01321071  RH  024%=      5-min Rain = 0
KGU1 141855Z 08004KT 13/M08 A3038 RMK A01 T01301075  RH  024%=      5-min Rain = 0
KGU1 141856Z 08005KT 13/M07 A3038 RMK A01 T01291069  RH  025%=      5-min Rain = 0
KGU1 141857Z 07006KT 13/M07 A3038 RMK A01 T01301074  RH  024%=      5-min Rain = 0
KGU1 141858Z 09006KT 13/M07 A3038 RMK A01 T01291072  RH  024%=      5-min Rain = 0
KGU1 141859Z 09008KT 13/M07 A3038 RMK A01 T01281073  RH  024%=      5-min Rain = 0
KGU1 141900Z 11008KT 13/M07 A3038 RMK A01 T01271071  RH  025%=      5-min Rain = 0
KGU1 141901Z 12006KT 13/M07 A3038 RMK A01 T01281071  RH  025%=      5-min Rain = 0
KGU1 141902Z 10006KT 13/M07 A3038 RMK A01 T01291069  RH  025%=      5-min Rain = 0
KGU1 141903Z 10007KT 13/M07 A3038 RMK A01 T01301072  RH  024%=      5-min Rain = 0
KGU1 141904Z 13006KT 13/M07 A3038 RMK A01 T01311067  RH  025%=      5-min Rain = 0
KGU1 141905Z 12006KT 13/M07 A3037 RMK A01 T01331071  RH  024%=      5-min Rain = 0
KGU1 141906Z 10004KT 13/M07 A3037 RMK A01 T01331070  RH  024%=      5-min Rain = 0
KGU1 141907Z 10005KT 13/M07 A3037 RMK A01 T01341073  RH  023%=      5-min Rain = 0
KGU1 141908Z 09002KT 13/M07 A3037 RMK A01 T01321073  RH  024%=      5-min Rain = 0
KGU1 141909Z 10004KT 13/M07 A3037 RMK A01 T01311071  RH  024%=      5-min Rain = 0
KGU1 141910Z 12004KT 13/M07 A3037 RMK A01 T01311070  RH  024%=      5-min Rain = 0
KGU1 141911Z 13006KT 13/M07 A3037 RMK A01 T01331070  RH  024%=      5-min Rain = 0
KGU1 141912Z 11005KT 13/M07 A3037 RMK A01 T01331074  RH  023%=      5-min Rain = 0
KGU1 141913Z 10004KT 13/M07 A3037 RMK A01 T01321074  RH  023%=      5-min Rain = 0
KGU1 141914Z 08005KT 13/M08 A3037 RMK A01 T01301075  RH  024%=      5-min Rain = 0
KGU1 141915Z 08006KT 13/M08 A3037 RMK A01 T01281076  RH  024%=      5-min Rain = 0
KGU1 141916Z 08004KT 13/M08 A3037 RMK A01 T01261075  RH  024%=      5-min Rain = 0
KGU1 141917Z 08003KT 13/M08 A3037 RMK A01 T01251076  RH  024%=      5-min Rain = 0
KGU1 141918Z 08001KT 13/M07 A3037 RMK A01 T01251074  RH  024%=      5-min Rain = 0
KGU1 141919Z 02002KT 13/M07 A3037 RMK A01 T01271072  RH  025%=      5-min Rain = 0
KGU1 141920Z 05002KT 13/M08 A3037 RMK A01 T01291076  RH  024%=      5-min Rain = 0
KGU1 141921Z 11004KT 13/M07 A3036 RMK A01 T01301072  RH  024%=      5-min Rain = 0
KGU1 141922Z 13004KT 13/M07 A3036 RMK A01 T01321070  RH  024%=      5-min Rain = 0
KGU1 141923Z 16004KT 13/M07 A3036 RMK A01 T01341074  RH  023%=      5-min Rain = 0
KGU1 141924Z 14006KT 13/M07 A3036 RMK A01 T01341069  RH  024%=      5-min Rain = 0
KGU1 141925Z 15007KT 14/M07 A3036 RMK A01 T01351073  RH  023%=      5-min Rain = 0
KGU1 141926Z 14006KT 13/M07 A3036 RMK A01 T01341071  RH  024%=      5-min Rain = 0
KGU1 141927Z 13006KT 13/M07 A3036 RMK A01 T01331074  RH  023%=      5-min Rain = 0
KGU1 141928Z 14004KT 13/M07 A3036 RMK A01 T01321072  RH  024%=      5-min Rain = 0
KGU1 141929Z 17005KT 13/M07 A3036 RMK A01 T01321074  RH  023%=      5-min Rain = 0
KGU1 141930Z 17003KT 13/M07 A3036 RMK A01 T01311072  RH  024%=      5-min Rain = 0
KGU1 141931Z 17002KT 13/M07 A3036 RMK A01 T01321073  RH  024%=      5-min Rain = 0
KGU1 141932Z 16002KT 13/M07 A3036 RMK A01 T01331074  RH  023%=      5-min Rain = 0
KGU1 141933Z 14005KT 13/M07 A3036 RMK A01 T01341070  RH  024%=      5-min Rain = 0
KGU1 141934Z 14006KT 14/M07 A3036 RMK A01 T01361072  RH  023%=      5-min Rain = 0
KGU1 141935Z 15004KT 14/M07 A3036 RMK A01 T01361073  RH  023%=      5-min Rain = 0
KGU1 141936Z 13005KT 14/M07 A3036 RMK A01 T01361071  RH  023%=      5-min Rain = 0
KGU1 141937Z 13006KT 14/M07 A3036 RMK A01 T01361073  RH  023%=      5-min Rain = 0
KGU1 141938Z 12004KT 14/M07 A3035 RMK A01 T01351073  RH  023%=      5-min Rain = 0
KGU1 141939Z 10005KT 13/M07 A3035 RMK A01 T01341072  RH  023%=      5-min Rain = 0
KGU1 141940Z 08005KT 13/M07 A3035 RMK A01 T01331074  RH  023%=      5-min Rain = 0
KGU1 141941Z 10005KT 13/M07 A3035 RMK A01 T01311074  RH  024%=      5-min Rain = 0
KGU1 141942Z 11004KT 13/M07 A3035 RMK A01 T01311073  RH  024%=      5-min Rain = 0
KGU1 141943Z 13002KT 13/M08 A3035 RMK A01 T01311076  RH  023%=      5-min Rain = 0
KGU1 141944Z 19001KT 13/M07 A3035 RMK A01 T01311072  RH  024%=      5-min Rain = 0
KGU1 141945Z 12004KT 13/M07 A3035 RMK A01 T01331072  RH  024%=      5-min Rain = 0
KGU1 141946Z 12006KT 13/M07 A3035 RMK A01 T01341072  RH  023%=      5-min Rain = 0
KGU1 141947Z 09006KT 13/M07 A3035 RMK A01 T01341073  RH  023%=      5-min Rain = 0
KGU1 141948Z 11005KT 13/M07 A3035 RMK A01 T01331073  RH  024%=      5-min Rain = 0
KGU1 141949Z 11006KT 13/M07 A3035 RMK A01 T01321073  RH  024%=      5-min Rain = 0
KGU1 141950Z 10004KT 13/M07 A3035 RMK A01 T01321074  RH  023%=      5-min Rain = 0
KGU1 141951Z 11005G10KT 13/M07 A3035 RMK A01 T01321073  RH  024%=      5-min Rain = 0
KGU1 141952Z 12004KT 13/M08 A3035 RMK A01 T01311076  RH  023%=      5-min Rain = 0
KGU1 141953Z 14006KT 13/M07 A3035 RMK A01 T01311072  RH  024%=      5-min Rain = 0
KGU1 141954Z 14004KT 13/M07 A3035 RMK A01 T01311074  RH  023%=      5-min Rain = 0
KGU1 141955Z 13005KT 13/M07 A3035 RMK A01 T01321072  RH  024%=      5-min Rain = 0
KGU1 141956Z 11006KT 13/M07 A3034 RMK A01 T01321073  RH  024%=      5-min Rain = 0
KGU1 141957Z 11007KT 13/M08 A3034 RMK A01 T01331076  RH  023%=      5-min Rain = 0
KGU1 141958Z 13006KT 13/M08 A3034 RMK A01 T01321076  RH  023%=      5-min Rain = 0
KGU1 141959Z 11005KT 13/M07 A3034 RMK A01 T01311074  RH  023%=      5-min Rain = 0
KGU1 142000Z 11006KT 13/M07 A3034 RMK A01 T01321072  RH  024%=      5-min Rain = 0
KGU1 142001Z 12006KT 13/M08 A3034 RMK A01 T01341075  RH  023%=      5-min Rain = 0
KGU1 142002Z 11007KT 13/M07 A3034 RMK A01 T01341073  RH  023%=      5-min Rain = 0
KGU1 142003Z 11007KT 13/M08 A3034 RMK A01 T01341076  RH  023%=      5-min Rain = 0
KGU1 142004Z 11003KT 13/M08 A3034 RMK A01 T01321078  RH  023%=      5-min Rain = 0
KGU1 142005Z 14005KT 13/M07 A3034 RMK A01 T01321072  RH  024%=      5-min Rain = 0
KGU1 142006Z 16004KT 13/M08 A3034 RMK A01 T01331075  RH  023%=      5-min Rain = 0
KGU1 142007Z 14006KT 13/M07 A3034 RMK A01 T01341074  RH  023%=      5-min Rain = 0
KGU1 142008Z 13006KT 13/M08 A3034 RMK A01 T01341077  RH  023%=      5-min Rain = 0
KGU1 142009Z 12004KT 13/M08 A3034 RMK A01 T01321077  RH  023%=      5-min Rain = 0
KGU1 142010Z 13003KT 13/M08 A3034 RMK A01 T01311076  RH  023%=      5-min Rain = 0
KGU1 142011Z 17002KT 13/M08 A3034 RMK A01 T01321078  RH  023%=      5-min Rain = 0
KGU1 142012Z 20003KT 13/M08 A3034 RMK A01 T01311076  RH  023%=      5-min Rain = 0
KGU1 142013Z 12005KT 13/M08 A3034 RMK A01 T01321075  RH  023%=      5-min Rain = 0
KGU1 142014Z 09006KT 13/M07 A3034 RMK A01 T01331074  RH  023%=      5-min Rain = 0
KGU1 142015Z 10006KT 13/M08 A3034 RMK A01 T01341076  RH  023%=      5-min Rain = 0
KGU1 142016Z 09003KT 13/M08 A3034 RMK A01 T01331076  RH  023%=      5-min Rain = 0
KGU1 142017Z 10003KT 13/M08 A3034 RMK A01 T01341075  RH  023%=      5-min Rain = 0
KGU1 142018Z 11004KT 14/M07 A3034 RMK A01 T01351071  RH  023%=      5-min Rain = 0
KGU1 142019Z 09006KT 14/M08 A3034 RMK A01 T01371075  RH  023%=      5-min Rain = 0
KGU1 142020Z 09003KT 14/M07 A3034 RMK A01 T01371071  RH  023%=      5-min Rain = 0
KGU1 142021Z 11006KT 14/M07 A3034 RMK A01 T01381074  RH  023%=      5-min Rain = 0
KGU1 142022Z 12004KT 14/M08 A3034 RMK A01 T01381077  RH  022%=      5-min Rain = 0
KGU1 142023Z 12004KT 14/M08 A3034 RMK A01 T01361077  RH  022%=      5-min Rain = 0
KGU1 142024Z 13003KT 14/M08 A3034 RMK A01 T01351078  RH  022%=      5-min Rain = 0
KGU1 142025Z 16004KT 14/M07 A3033 RMK A01 T01351074  RH  023%=      5-min Rain = 0
KGU1 142026Z 14005KT 14/M08 A3033 RMK A01 T01351077  RH  022%=      5-min Rain = 0
KGU1 142027Z 14005KT 14/M08 A3033 RMK A01 T01361076  RH  023%=      5-min Rain = 0
KGU1 142028Z 14006KT 14/M08 A3033 RMK A01 T01351076  RH  023%=      5-min Rain = 0
KGU1 142029Z 14005KT 14/M08 A3033 RMK A01 T01351076  RH  023%=      5-min Rain = 0
KGU1 142030Z 15003KT 14/M08 A3033 RMK A01 T01351075  RH  023%=      5-min Rain = 0
KGU1 142031Z 17004KT 14/M08 A3033 RMK A01 T01361076  RH  023%=      5-min Rain = 0
KGU1 142032Z 19004KT 14/M08 A3033 RMK A01 T01371077  RH  022%=      5-min Rain = 0
KGU1 142033Z 18003KT 14/M08 A3033 RMK A01 T01361076  RH  022%=      5-min Rain = 0
KGU1 142034Z 13002KT 14/M08 A3033 RMK A01 T01371077  RH  022%=      5-min Rain = 0
KGU1 142035Z 10005KT 14/M08 A3033 RMK A01 T01361078  RH  022%=      5-min Rain = 0
KGU1 142036Z 11004KT 14/M08 A3033 RMK A01 T01361075  RH  023%=      5-min Rain = 0
KGU1 142037Z 11003KT 14/M08 A3033 RMK A01 T01361076  RH  022%=      5-min Rain = 0
KGU1 142038Z 12004KT 14/M08 A3033 RMK A01 T01371079  RH  022%=      5-min Rain = 0
KGU1 142039Z 11004KT 14/M08 A3033 RMK A01 T01361079  RH  022%=      5-min Rain = 0
KGU1 142040Z 11005G10KT 14/M08 A3033 RMK A01 T01351079  RH  022%=      5-min Rain = 0
KGU1 142041Z 12007KT 14/M08 A3033 RMK A01 T01351078  RH  022%=      5-min Rain = 0
KGU1 142042Z 13006KT 14/M08 A3033 RMK A01 T01351078  RH  022%=      5-min Rain = 0
KGU1 142043Z 14005KT 14/M08 A3033 RMK A01 T01351077  RH  022%=      5-min Rain = 0
KGU1 142044Z 15006KT 14/M08 A3033 RMK A01 T01361079  RH  022%=      5-min Rain = 0
KGU1 142045Z 16004KT 14/M08 A3033 RMK A01 T01351078  RH  022%=      5-min Rain = 0
KGU1 142046Z 16003KT 14/M08 A3033 RMK A01 T01351078  RH  022%=      5-min Rain = 0
KGU1 142047Z 17004KT 14/M08 A3033 RMK A01 T01361079  RH  022%=      5-min Rain = 0
KGU1 142048Z 18003KT 14/M08 A3033 RMK A01 T01371079  RH  022%=      5-min Rain = 0
KGU1 142049Z 14005KT 14/M08 A3033 RMK A01 T01381078  RH  022%=      5-min Rain = 0
KGU1 142050Z 12005KT 14/M08 A3033 RMK A01 T01371080  RH  022%=      5-min Rain = 0
KGU1 142051Z 11005KT 14/M08 A3033 RMK A01 T01371079  RH  022%=      5-min Rain = 0
KGU1 142052Z 12004KT 14/M08 A3033 RMK A01 T01371081  RH  022%=      5-min Rain = 0
KGU1 142053Z 17004KT 14/M08 A3033 RMK A01 T01371076  RH  022%=      5-min Rain = 0
KGU1 142054Z 15003KT 14/M08 A3033 RMK A01 T01381080  RH  022%=      5-min Rain = 0
KGU1 142055Z 12004KT 14/M08 A3033 RMK A01 T01391077  RH  022%=      5-min Rain = 0
KGU1 142056Z 11006KT 14/M08 A3033 RMK A01 T01401078  RH  022%=      5-min Rain = 0
KGU1 142057Z 11006KT 14/M08 A3033 RMK A01 T01401080  RH  021%=      5-min Rain = 0
KGU1 142058Z 10006KT 14/M08 A3033 RMK A01 T01391081  RH  021%=      5-min Rain = 0
KGU1 142059Z 12005KT 14/M08 A3033 RMK A01 T01361081  RH  021%=      5-min Rain = 0
KGU1 142100Z 12005KT 14/M08 A3033 RMK A01 T01361076  RH  022%=      5-min Rain = 0
KGU1 142101Z 14007KT 14/M08 A3033 RMK A01 T01381079  RH  022%=      5-min Rain = 0
KGU1 142102Z 13007KT 14/M08 A3033 RMK A01 T01381079  RH  022%=      5-min Rain = 0
KGU1 142103Z 12008KT 14/M08 A3033 RMK A01 T01381080  RH  022%=      5-min Rain = 0
KGU1 142104Z 12007KT 14/M08 A3033 RMK A01 T01381079  RH  022%=      5-min Rain = 0
KGU1 142105Z 12007KT 14/M08 A3033 RMK A01 T01381079  RH  022%=      5-min Rain = 0
KGU1 142106Z 12007KT 14/M08 A3033 RMK A01 T01391081  RH  021%=      5-min Rain = 0
KGU1 142107Z 12006KT 14/M08 A3033 RMK A01 T01381078  RH  022%=      5-min Rain = 0
KGU1 142108Z 13006KT 14/M08 A3033 RMK A01 T01401080  RH  021%=      5-min Rain = 0
KGU1 142109Z 09007KT 14/M08 A3033 RMK A01 T01401079  RH  021%=      5-min Rain = 0
KGU1 142110Z 10006KT 14/M08 A3033 RMK A01 T01391080  RH  021%=      5-min Rain = 0
KGU1 142111Z 12004KT 14/M08 A3033 RMK A01 T01391082  RH  021%=      5-min Rain = 0
KGU1 142112Z 13004KT 14/M08 A3033 RMK A01 T01391078  RH  022%=      5-min Rain = 0
KGU1 142113Z 12005KT 14/M08 A3033 RMK A01 T01401080  RH  021%=      5-min Rain = 0
KGU1 142114Z 11005KT 14/M08 A3033 RMK A01 T01401079  RH  021%=      5-min Rain = 0
KGU1 142115Z 12007KT 14/M08 A3033 RMK A01 T01401077  RH  022%=      5-min Rain = 0
KGU1 142116Z 13006KT 14/M08 A3033 RMK A01 T01411080  RH  021%=      5-min Rain = 0
KGU1 142117Z 11009KT 14/M08 A3033 RMK A01 T01401081  RH  021%=      5-min Rain = 0
KGU1 142118Z 11008KT 14/M08 A3033 RMK A01 T01381079  RH  022%=      5-min Rain = 0
KGU1 142119Z 08007KT 14/M08 A3033 RMK A01 T01381083  RH  021%=      5-min Rain = 0
KGU1 142120Z 11004KT 14/M08 A3033 RMK A01 T01361081  RH  022%=      5-min Rain = 0
KGU1 142121Z 13005KT 14/M08 A3033 RMK A01 T01361083  RH  021%=      5-min Rain = 0
KGU1 142122Z 13001KT 14/M08 A3033 RMK A01 T01351083  RH  021%=      5-min Rain = 0
KGU1 142123Z 15003KT 14/M08 A3033 RMK A01 T01371077  RH  022%=      5-min Rain = 0
KGU1 142124Z 16005KT 14/M08 A3033 RMK A01 T01391080  RH  021%=      5-min Rain = 0
KGU1 142125Z 17006KT 14/M08 A3033 RMK A01 T01391081  RH  021%=      5-min Rain = 0
KGU1 142126Z 16006KT 14/M08 A3033 RMK A01 T01391077  RH  022%=      5-min Rain = 0
KGU1 142127Z 16005KT 14/M08 A3033 RMK A01 T01401077  RH  022%=      5-min Rain = 0
KGU1 142128Z 11004KT 14/M08 A3033 RMK A01 T01411080  RH  021%=      5-min Rain = 0
KGU1 142129Z 14004KT 14/M08 A3033 RMK A01 T01421076  RH  022%=      5-min Rain = 0
KGU1 142130Z 15006KT 14/M08 A3033 RMK A01 T01421080  RH  021%=      5-min Rain = 0
KGU1 142131Z 14004KT 14/M08 A3033 RMK A01 T01411081  RH  021%=      5-min Rain = 0
KGU1 142132Z 12004KT 14/M08 A3033 RMK A01 T01411081  RH  021%=      5-min Rain = 0
KGU1 142133Z 09004KT 14/M08 A3033 RMK A01 T01401080  RH  021%=      5-min Rain = 0
KGU1 142134Z 11008KT 14/M08 A3033 RMK A01 T01401078  RH  021%=      5-min Rain = 0
KGU1 142135Z 12007KT 14/M08 A3033 RMK A01 T01401080  RH  021%=      5-min Rain = 0
KGU1 142136Z 12003KT 14/M08 A3033 RMK A01 T01401082  RH  021%=      5-min Rain = 0
KGU1 142137Z 12005KT 14/M08 A3033 RMK A01 T01391079  RH  021%=      5-min Rain = 0
KGU1 142138Z 14008KT 14/M08 A3033 RMK A01 T01401078  RH  022%=      5-min Rain = 0
KGU1 142139Z 14007KT 14/M08 A3033 RMK A01 T01391081  RH  021%=      5-min Rain = 0
KGU1 142140Z 15006KT 14/M08 A3033 RMK A01 T01381081  RH  021%=      5-min Rain = 0
KGU1 142141Z 14005KT 14/M08 A3033 RMK A01 T01371079  RH  022%=      5-min Rain = 0
KGU1 142142Z 13006KT 14/M08 A3033 RMK A01 T01371079  RH  022%=      5-min Rain = 0
KGU1 142143Z 11005KT 14/M08 A3033 RMK A01 T01381079  RH  022%=      5-min Rain = 0
KGU1 142144Z 11004KT 14/M08 A3033 RMK A01 T01381081  RH  021%=      5-min Rain = 0
KGU1 142145Z 10007KT 14/M08 A3033 RMK A01 T01371079  RH  022%=      5-min Rain = 0
KGU1 142146Z 09005KT 14/M08 A3033 RMK A01 T01361080  RH  022%=      5-min Rain = 0
KGU1 142147Z 08006KT 14/M08 A3033 RMK A01 T01361081  RH  022%=      5-min Rain = 0
KGU1 142148Z 12005KT 14/M08 A3033 RMK A01 T01351079  RH  022%=      5-min Rain = 0
KGU1 142149Z 11005KT 14/M08 A3033 RMK A01 T01361080  RH  022%=      5-min Rain = 0
KGU1 142150Z 10005KT 14/M08 A3033 RMK A01 T01371079  RH  022%=      5-min Rain = 0
KGU1 142151Z 11005KT 14/M08 A3033 RMK A01 T01371082  RH  021%=      5-min Rain = 0
KGU1 142152Z 10004KT 14/M08 A3033 RMK A01 T01361079  RH  022%=      5-min Rain = 0
KGU1 142153Z 11004KT 14/M08 A3033 RMK A01 T01371078  RH  022%=      5-min Rain = 0
KGU1 142154Z 13006KT 14/M08 A3033 RMK A01 T01381080  RH  022%=      5-min Rain = 0
KGU1 142155Z 14006KT 14/M08 A3033 RMK A01 T01381082  RH  021%=      5-min Rain = 0
KGU1 142156Z 12007KT 14/M08 A3033 RMK A01 T01371080  RH  022%=      5-min Rain = 0
KGU1 142157Z 14006KT 14/M08 A3033 RMK A01 T01361081  RH  022%=      5-min Rain = 0
KGU1 142158Z 14004KT 14/M08 A3033 RMK A01 T01361078  RH  022%=      5-min Rain = 0
KGU1 142159Z 13005KT 14/M08 A3033 RMK A01 T01371080  RH  022%=      5-min Rain = 0
KGU1 142200Z 13007KT 14/M08 A3033 RMK A01 T01391079  RH  022%=      5-min Rain = 0
KGU1 142201Z 13006KT 14/M08 A3033 RMK A01 T01391080  RH  021%=      5-min Rain = 0
KGU1 142202Z 11007KT 14/M08 A3033 RMK A01 T01381079  RH  022%=      5-min Rain = 0
KGU1 142203Z 10006KT 14/M08 A3033 RMK A01 T01381080  RH  022%=      5-min Rain = 0
KGU1 142204Z 12005KT 14/M08 A3033 RMK A01 T01381081  RH  021%=      5-min Rain = 0
KGU1 142205Z 10006KT 14/M08 A3033 RMK A01 T01371081  RH  021%=      5-min Rain = 0
KGU1 142206Z 09006KT 14/M08 A3033 RMK A01 T01361080  RH  022%=      5-min Rain = 0
KGU1 142207Z 10006KT 14/M08 A3033 RMK A01 T01361079  RH  022%=      5-min Rain = 0
KGU1 142208Z 11005KT 14/M08 A3033 RMK A01 T01371078  RH  022%=      5-min Rain = 0
KGU1 142209Z 12005KT 14/M08 A3033 RMK A01 T01391079  RH  022%=      5-min Rain = 0
KGU1 142210Z 14007KT 14/M08 A3033 RMK A01 T01391080  RH  021%=      5-min Rain = 0
KGU1 142211Z 10009KT 14/M08 A3033 RMK A01 T01381081  RH  021%=      5-min Rain = 0
KGU1 142212Z 10007KT 14/M08 A3033 RMK A01 T01351081  RH  022%=      5-min Rain = 0
KGU1 142213Z 11005KT 13/M08 A3033 RMK A01 T01341081  RH  022%=      5-min Rain = 0
KGU1 142214Z 10002KT 13/M08 A3033 RMK A01 T01331081  RH  022%=      5-min Rain = 0
KGU1 142215Z 10004KT 13/M08 A3033 RMK A01 T01341079  RH  022%=      5-min Rain = 0
KGU1 142216Z 11006KT 14/M08 A3033 RMK A01 T01351078  RH  022%=      5-min Rain = 0
KGU1 142217Z 09008KT 14/M08 A3033 RMK A01 T01361081  RH  022%=      5-min Rain = 0
KGU1 142218Z 08007KT 14/M08 A3033 RMK A01 T01351081  RH  022%=      5-min Rain = 0
KGU1 142219Z 09004KT 13/M08 A3033 RMK A01 T01341081  RH  022%=      5-min Rain = 0
KGU1 142220Z 12003KT 13/M08 A3033 RMK A01 T01341081  RH  022%=      5-min Rain = 0
KGU1 142221Z 12004KT 14/M08 A3033 RMK A01 T01351081  RH  022%=      5-min Rain = 0
KGU1 142222Z 09006KT 14/M08 A3033 RMK A01 T01351080  RH  022%=      5-min Rain = 0
KGU1 142223Z 12006KT 13/M08 A3033 RMK A01 T01341078  RH  022%=      5-min Rain = 0
KGU1 142224Z 09008KT 14/M08 A3033 RMK A01 T01351080  RH  022%=      5-min Rain = 0
KGU1 142225Z 09007KT 13/M08 A3033 RMK A01 T01331082  RH  022%=      5-min Rain = 0
KGU1 142226Z 11006KT 13/M08 A3033 RMK A01 T01321080  RH  022%=      5-min Rain = 0
KGU1 142227Z 10007KT 13/M08 A3033 RMK A01 T01311081  RH  022%=      5-min Rain = 0
KGU1 142228Z 10005KT 13/M08 A3033 RMK A01 T01311078  RH  023%=      5-min Rain = 0
KGU1 142229Z 11004KT 13/M08 A3033 RMK A01 T01331078  RH  023%=      5-min Rain = 0
KGU1 142230Z 11005KT 13/M08 A3033 RMK A01 T01341080  RH  022%=      5-min Rain = 0
KGU1 142231Z 08005KT 13/M08 A3033 RMK A01 T01341082  RH  022%=      5-min Rain = 0
KGU1 142232Z 07005KT 13/M08 A3033 RMK A01 T01331079  RH  022%=      5-min Rain = 0
KGU1 142233Z 10005KT 13/M08 A3033 RMK A01 T01331081  RH  022%=      5-min Rain = 0
KGU1 142234Z 09005KT 13/M08 A3033 RMK A01 T01321080  RH  022%=      5-min Rain = 0
KGU1 142235Z 09004KT 13/M08 A3033 RMK A01 T01311081  RH  022%=      5-min Rain = 0
KGU1 142236Z 12005KT 13/M08 A3033 RMK A01 T01311081  RH  022%=      5-min Rain = 0
KGU1 142237Z 11005KT 13/M08 A3033 RMK A01 T01311082  RH  022%=      5-min Rain = 0
KGU1 142238Z 10006KT 13/M08 A3033 RMK A01 T01311081  RH  022%=      5-min Rain = 0
KGU1 142239Z 11007KT 13/M08 A3033 RMK A01 T01301080  RH  023%=      5-min Rain = 0
KGU1 142240Z 10005KT 13/M08 A3033 RMK A01 T01301078  RH  023%=      5-min Rain = 0
KGU1 142241Z 09007KT 13/M08 A3033 RMK A01 T01311081  RH  022%=      5-min Rain = 0
KGU1 142242Z 09006KT 13/M08 A3033 RMK A01 T01311080  RH  023%=      5-min Rain = 0
KGU1 142243Z 10010KT 13/M08 A3033 RMK A01 T01301081  RH  022%=      5-min Rain = 0
KGU1 142244Z 10008KT 13/M08 A3033 RMK A01 T01281080  RH  023%=      5-min Rain = 0
KGU1 142245Z 10009KT 13/M08 A3033 RMK A01 T01271079  RH  023%=      5-min Rain = 0
KGU1 142246Z 10008KT 13/M08 A3033 RMK A01 T01271081  RH  023%=      5-min Rain = 0
KGU1 142247Z 09003KT 13/M08 A3033 RMK A01 T01261078  RH  024%=      5-min Rain = 0
KGU1 142248Z 09006KT 13/M08 A3033 RMK A01 T01271079  RH  023%=      5-min Rain = 0
KGU1 142249Z 09006KT 13/M08 A3033 RMK A01 T01271080  RH  023%=      5-min Rain = 0
KGU1 142250Z 11008KT 13/M08 A3033 RMK A01 T01271080  RH  023%=      5-min Rain = 0
KGU1 142251Z 11007KT 13/M08 A3033 RMK A01 T01261081  RH  023%=      5-min Rain = 0
KGU1 142252Z 11006KT 12/M08 A3033 RMK A01 T01241080  RH  024%=      5-min Rain = 0
KGU1 142253Z 10006KT 12/M08 A3033 RMK A01 T01241080  RH  024%=      5-min Rain = 0
KGU1 142254Z 09005KT 12/M08 A3033 RMK A01 T01231077  RH  024%=      5-min Rain = 0
KGU1 142255Z 10006KT 12/M08 A3033 RMK A01 T01241080  RH  024%=      5-min Rain = 0
KGU1 142256Z 11007KT 12/M08 A3033 RMK A01 T01231082  RH  023%=      5-min Rain = 0
KGU1 142257Z 11007KT 12/M08 A3033 RMK A01 T01231080  RH  024%=      5-min Rain = 0
KGU1 142258Z 09007KT 12/M08 A3033 RMK A01 T01221079  RH  024%=      5-min Rain = 0
KGU1 142259Z 10007KT 12/M08 A3033 RMK A01 T01231078  RH  024%=      5-min Rain = 0
KGU1 142300Z 10008KT 12/M08 A3033 RMK A01 T01231079  RH  024%=      5-min Rain = 0
KGU1 142301Z 10008KT 12/M08 A3033 RMK A01 T01221079  RH  024%=      5-min Rain = 0
KGU1 142302Z 11008KT 12/M08 A3033 RMK A01 T01211080  RH  024%=      5-min Rain = 0
KGU1 142303Z 11007KT 12/M08 A3033 RMK A01 T01211079  RH  024%=      5-min Rain = 0
KGU1 142304Z 10007KT 12/M08 A3033 RMK A01 T01211079  RH  024%=      5-min Rain = 0
KGU1 142305Z 08007KT 12/M08 A3033 RMK A01 T01211078  RH  024%=      5-min Rain = 0
KGU1 142306Z 09007KT 12/M08 A3033 RMK A01 T01201080  RH  024%=      5-min Rain = 0
KGU1 142307Z 08008KT 12/M08 A3033 RMK A01 T01201080  RH  024%=      5-min Rain = 0
KGU1 142308Z 08008KT 12/M08 A3033 RMK A01 T01191081  RH  024%=      5-min Rain = 0
KGU1 142309Z 09007KT 12/M08 A3033 RMK A01 T01181080  RH  024%=      5-min Rain = 0
KGU1 142310Z 09008KT 12/M08 A3033 RMK A01 T01181080  RH  025%=      5-min Rain = 0
KGU1 142311Z 08007KT 12/M08 A3033 RMK A01 T01171080  RH  025%=      5-min Rain = 0
KGU1 142312Z 06006KT 12/M08 A3033 RMK A01 T01171080  RH  025%=      5-min Rain = 0
KGU1 142313Z 07007KT 12/M08 A3033 RMK A01 T01171081  RH  025%=      5-min Rain = 0
KGU1 142314Z 08008KT 12/M08 A3033 RMK A01 T01161081  RH  025%=      5-min Rain = 0
KGU1 142315Z 09006KT 12/M08 A3033 RMK A01 T01161081  RH  025%=      5-min Rain = 0
KGU1 142316Z 09007KT 12/M08 A3033 RMK A01 T01161079  RH  025%=      5-min Rain = 0
KGU1 142317Z 07008KT 12/M08 A3033 RMK A01 T01151082  RH  025%=      5-min Rain = 0
KGU1 142318Z 07006KT 12/M08 A3033 RMK A01 T01151080  RH  025%=      5-min Rain = 0
KGU1 142319Z 06007KT 12/M08 A3033 RMK A01 T01151081  RH  025%=      5-min Rain = 0
KGU1 142320Z 05008KT 11/M08 A3033 RMK A01 T01141081  RH  025%=      5-min Rain = 0
KGU1 142321Z 06006KT 11/M08 A3033 RMK A01 T01131081  RH  025%=      5-min Rain = 0
KGU1 142322Z 07006KT 11/M08 A3033 RMK A01 T01131081  RH  025%=      5-min Rain = 0
KGU1 142323Z 07007KT 11/M08 A3033 RMK A01 T01131080  RH  025%=      5-min Rain = 0
KGU1 142324Z 07007KT 11/M08 A3033 RMK A01 T01131081  RH  025%=      5-min Rain = 0
KGU1 142325Z 08007KT 11/M08 A3033 RMK A01 T01131079  RH  026%=      5-min Rain = 0
KGU1 142326Z 07006KT 11/M08 A3033 RMK A01 T01131079  RH  026%=      5-min Rain = 0
KGU1 142327Z 07008KT 11/M08 A3033 RMK A01 T01121080  RH  025%=      5-min Rain = 0
KGU1 142328Z 06007KT 11/M08 A3033 RMK A01 T01121081  RH  025%=      5-min Rain = 0
KGU1 142329Z 07005KT 11/M08 A3033 RMK A01 T01111080  RH  026%=      5-min Rain = 0
KGU1 142330Z 07006KT 11/M08 A3033 RMK A01 T01111079  RH  026%=      5-min Rain = 0
KGU1 142331Z 07006KT 11/M08 A3033 RMK A01 T01111079  RH  026%=      5-min Rain = 0
KGU1 142332Z 07005KT 11/M08 A3033 RMK A01 T01101079  RH  026%=      5-min Rain = 0
KGU1 142333Z 07006KT 11/M08 A3032 RMK A01 T01101080  RH  026%=      5-min Rain = 0
KGU1 142334Z 08006KT 11/M08 A3032 RMK A01 T01091079  RH  026%=      5-min Rain = 0
KGU1 142335Z 08007KT 11/M08 A3032 RMK A01 T01091079  RH  026%=      5-min Rain = 0
KGU1 142336Z 07005KT 11/M08 A3032 RMK A01 T01091079  RH  026%=      5-min Rain = 0
KGU1 142337Z 06005KT 11/M08 A3032 RMK A01 T01081079  RH  026%=      5-min Rain = 0
KGU1 142338Z 06005KT 11/M08 A3032 RMK A01 T01071079  RH  026%=      5-min Rain = 0
KGU1 142339Z 06007KT 11/M08 A3032 RMK A01 T01071080  RH  026%=      5-min Rain = 0
KGU1 142340Z 06006KT 11/M08 A3032 RMK A01 T01061080  RH  027%=      5-min Rain = 0
KGU1 142341Z 07006KT 11/M08 A3032 RMK A01 T01061079  RH  027%=      5-min Rain = 0
KGU1 142342Z 07005KT 11/M08 A3032 RMK A01 T01061079  RH  027%=      5-min Rain = 0
KGU1 142343Z 07007KT 11/M08 A3032 RMK A01 T01051080  RH  027%=      5-min Rain = 0
KGU1 142344Z 07006KT 10/M08 A3032 RMK A01 T01041081  RH  027%=      5-min Rain = 0
KGU1 142345Z 07007KT 10/M08 A3032 RMK A01 T01041080  RH  027%=      5-min Rain = 0
KGU1 142346Z 07006KT 10/M08 A3032 RMK A01 T01031081  RH  027%=      5-min Rain = 0
KGU1 142347Z 07005KT 10/M08 A3032 RMK A01 T01021080  RH  027%=      5-min Rain = 0
KGU1 142348Z 07004KT 10/M08 A3032 RMK A01 T01011078  RH  028%=      5-min Rain = 0
KGU1 142349Z 07004KT 10/M08 A3032 RMK A01 T01001079  RH  028%=      5-min Rain = 0
KGU1 142350Z 07006KT 10/M08 A3032 RMK A01 T00991078  RH  028%=      5-min Rain = 0
KGU1 142351Z 06005KT 10/M08 A3032 RMK A01 T00981079  RH  028%=      5-min Rain = 0
KGU1 142352Z 07005KT 10/M08 A3033 RMK A01 T00971079  RH  028%=      5-min Rain = 0
KGU1 142353Z 07005KT 10/M08 A3033 RMK A01 T00961079  RH  029%=      5-min Rain = 0
KGU1 142354Z 07004KT 10/M08 A3033 RMK A01 T00961078  RH  029%=      5-min Rain = 0
KGU1 142355Z 07005KT 09/M08 A3033 RMK A01 T00941079  RH  029%=      5-min Rain = 0
KGU1 142356Z 07005KT 09/M08 A3033 RMK A01 T00931079  RH  029%=      5-min Rain = 0
KGU1 142357Z 07005KT 09/M08 A3033 RMK A01 T00921079  RH  029%=      5-min Rain = 0
KGU1 142358Z 06005KT 09/M08 A3033 RMK A01 T00911079  RH  030%=      5-min Rain = 0
KGU1 142359Z 06005KT 09/M08 A3033 RMK A01 T00901079  RH  030%=      5-min Rain = 0
KGU1 150000Z 06005KT 09/M08 A3033 RMK A01 T00891078  RH  030%=      5-min Rain = 0
KGU1 150001Z 06004KT 09/M08 A3033 RMK A01 T00881079  RH  030%=      5-min Rain = 0
KGU1 150002Z 05004KT 09/M08 A3033 RMK A01 T00871078  RH  031%=      5-min Rain = 0
KGU1 150003Z 05003KT 09/M08 A3033 RMK A01 T00861077  RH  031%=      5-min Rain = 0
KGU1 150004Z 05004KT 09/M08 A3033 RMK A01 T00851077  RH  031%=      5-min Rain = 0
KGU1 150005Z 05004KT 08/M08 A3033 RMK A01 T00841077  RH  031%=      5-min Rain = 0
KGU1 150006Z 04004KT 08/M08 A3033 RMK A01 T00831077  RH  032%=      5-min Rain = 0
KGU1 150007Z 03003KT 08/M08 A3033 RMK A01 T00821077  RH  032%=      5-min Rain = 0
KGU1 150008Z 03002KT 08/M08 A3033 RMK A01 T00821077  RH  032%=      5-min Rain = 0
KGU1 150009Z 02002KT 08/M08 A3033 RMK A01 T00811077  RH  032%=      5-min Rain = 0
KGU1 150010Z 02003KT 08/M08 A3033 RMK A01 T00801076  RH  033%=      5-min Rain = 0
KGU1 150011Z 02004KT 08/M08 A3033 RMK A01 T00791077  RH  033%=      5-min Rain = 0
KGU1 150012Z 02004KT 08/M08 A3033 RMK A01 T00781076  RH  033%=      5-min Rain = 0
KGU1 150013Z 02004KT 08/M08 A3033 RMK A01 T00771077  RH  033%=      5-min Rain = 0
KGU1 150014Z 02003KT 08/M08 A3033 RMK A01 T00771077  RH  033%=      5-min Rain = 0
KGU1 150015Z 03003KT 08/M08 A3033 RMK A01 T00771077  RH  033%=      5-min Rain = 0
KGU1 150016Z 03003KT 08/M08 A3033 RMK A01 T00761077  RH  033%=      5-min Rain = 0
KGU1 150017Z 02004KT 08/M08 A3032 RMK A01 T00751077  RH  033%=      5-min Rain = 0
KGU1 150018Z 02004KT 08/M08 A3033 RMK A01 T00751076  RH  034%=      5-min Rain = 0
KGU1 150019Z 02004KT 07/M08 A3032 RMK A01 T00741076  RH  034%=      5-min Rain = 0
KGU1 150020Z 02004KT 07/M08 A3032 RMK A01 T00731076  RH  034%=      5-min Rain = 0
KGU1 150021Z 03004KT 07/M08 A3032 RMK A01 T00721077  RH  034%=      5-min Rain = 0
KGU1 150022Z 03004KT 07/M08 A3033 RMK A01 T00721077  RH  034%=      5-min Rain = 0
KGU1 150023Z 03004KT 07/M08 A3033 RMK A01 T00721077  RH  034%=      5-min Rain = 0
KGU1 150024Z 02004KT 07/M08 A3032 RMK A01 T00721077  RH  034%=      5-min Rain = 0
KGU1 150025Z 01004KT 07/M08 A3032 RMK A01 T00711076  RH  035%=      5-min Rain = 0
KGU1 150026Z 02004KT 07/M08 A3032 RMK A01 T00711076  RH  035%=      5-min Rain = 0
KGU1 150027Z 02004KT 07/M08 A3032 RMK A01 T00701076  RH  035%=      5-min Rain = 0
KGU1 150028Z 02005KT 07/M08 A3032 RMK A01 T00701077  RH  035%=      5-min Rain = 0
KGU1 150029Z 02004KT 07/M08 A3032 RMK A01 T00711076  RH  035%=      5-min Rain = 0
KGU1 150030Z 01004KT 07/M08 A3032 RMK A01 T00701076  RH  035%=      5-min Rain = 0
KGU1 150031Z 02004KT 07/M08 A3032 RMK A01 T00701077  RH  035%=      5-min Rain = 0
KGU1 150032Z 02004KT 07/M08 A3032 RMK A01 T00711077  RH  034%=      5-min Rain = 0
KGU1 150033Z 03003KT 07/M08 A3032 RMK A01 T00711077  RH  034%=      5-min Rain = 0
KGU1 150034Z 03003KT 07/M08 A3032 RMK A01 T00721077  RH  034%=      5-min Rain = 0
KGU1 150035Z 02004KT 07/M08 A3032 RMK A01 T00711077  RH  034%=      5-min Rain = 0
KGU1 150036Z 02004KT 07/M08 A3032 RMK A01 T00711077  RH  034%=      5-min Rain = 0
KGU1 150037Z 02005KT 07/M08 A3032 RMK A01 T00701077  RH  035%=      5-min Rain = 0
KGU1 150038Z 01004KT 07/M08 A3032 RMK A01 T00701077  RH  035%=      5-min Rain = 0
KGU1 150039Z 01004KT 07/M08 A3032 RMK A01 T00691077  RH  035%=      5-min Rain = 0
KGU1 150040Z 01005KT 07/M08 A3032 RMK A01 T00691077  RH  035%=      5-min Rain = 0
KGU1 150041Z 01004KT 07/M08 A3032 RMK A01 T00691076  RH  035%=      5-min Rain = 0
KGU1 150042Z 01004KT 07/M08 A3032 RMK A01 T00681077  RH  035%=      5-min Rain = 0
KGU1 150043Z 01004KT 07/M08 A3032 RMK A01 T00681076  RH  035%=      5-min Rain = 0
KGU1 150044Z 01004KT 07/M08 A3032 RMK A01 T00671076  RH  035%=      5-min Rain = 0
KGU1 150045Z 01004KT 07/M08 A3032 RMK A01 T00671077  RH  035%=      5-min Rain = 0
KGU1 150046Z 01004KT 07/M08 A3032 RMK A01 T00671077  RH  036%=      5-min Rain = 0
KGU1 150047Z 01005KT 07/M08 A3032 RMK A01 T00661077  RH  036%=      5-min Rain = 0
KGU1 150048Z 01004KT 07/M08 A3032 RMK A01 T00661077  RH  036%=      5-min Rain = 0
KGU1 150049Z 02004KT 07/M08 A3032 RMK A01 T00661077  RH  036%=      5-min Rain = 0
KGU1 150050Z 02005KT 07/M08 A3032 RMK A01 T00661077  RH  036%=      5-min Rain = 0
KGU1 150051Z 01004KT 07/M08 A3032 RMK A01 T00661077  RH  036%=      5-min Rain = 0
KGU1 150052Z 01004KT 07/M08 A3032 RMK A01 T00651076  RH  036%=      5-min Rain = 0
KGU1 150053Z 02004KT 07/M08 A3032 RMK A01 T00651077  RH  036%=      5-min Rain = 0
KGU1 150054Z 02004KT 06/M08 A3032 RMK A01 T00641077  RH  036%=      5-min Rain = 0
KGU1 150055Z 02004KT 06/M08 A3032 RMK A01 T00641077  RH  036%=      5-min Rain = 0
KGU1 150056Z 02003KT 06/M08 A3032 RMK A01 T00641077  RH  036%=      5-min Rain = 0
KGU1 150057Z 02004KT 06/M08 A3032 RMK A01 T00641077  RH  036%=      5-min Rain = 0
KGU1 150058Z 02004KT 07/M08 A3032 RMK A01 T00651077  RH  036%=      5-min Rain = 0
KGU1 150059Z 02004KT 07/M08 A3032 RMK A01 T00651078  RH  036%=      5-min Rain = 0
KGU1 150100Z 02004KT 07/M08 A3032 RMK A01 T00651078  RH  036%=      5-min Rain = 0
KGU1 150101Z 02005KT 07/M08 A3032 RMK A01 T00651077  RH  036%=      5-min Rain = 0
KGU1 150102Z 02004KT 07/M08 A3032 RMK A01 T00651077  RH  036%=      5-min Rain = 0
KGU1 150103Z 02004KT 06/M08 A3032 RMK A01 T00641077  RH  036%=      5-min Rain = 0
KGU1 150104Z 03004KT 06/M08 A3032 RMK A01 T00641077  RH  036%=      5-min Rain = 0
KGU1 150105Z 03004KT 06/M08 A3032 RMK A01 T00641077  RH  036%=      5-min Rain = 0
KGU1 150106Z 02004KT 06/M08 A3032 RMK A01 T00631077  RH  036%=      5-min Rain = 0
KGU1 150107Z 02004KT 06/M08 A3032 RMK A01 T00631077  RH  037%=      5-min Rain = 0
KGU1 150108Z 03004KT 06/M08 A3032 RMK A01 T00631076  RH  037%=      5-min Rain = 0
KGU1 150109Z 03004KT 06/M08 A3032 RMK A01 T00621076  RH  037%=      5-min Rain = 0
KGU1 150110Z 03003KT 06/M08 A3032 RMK A01 T00621077  RH  037%=      5-min Rain = 0
KGU1 150111Z 03003KT 06/M08 A3032 RMK A01 T00621076  RH  037%=      5-min Rain = 0
KGU1 150112Z 03002KT 06/M08 A3032 RMK A01 T00611077  RH  037%=      5-min Rain = 0
KGU1 150113Z 03002KT 06/M08 A3032 RMK A01 T00611077  RH  037%=      5-min Rain = 0
KGU1 150114Z 02003KT 06/M08 A3032 RMK A01 T00611077  RH  037%=      5-min Rain = 0
KGU1 150115Z 02003KT 06/M08 A3032 RMK A01 T00611076  RH  037%=      5-min Rain = 0
KGU1 150116Z 02004KT 06/M08 A3032 RMK A01 T00611076  RH  037%=      5-min Rain = 0
KGU1 150117Z 01003KT 06/M08 A3032 RMK A01 T00611076  RH  037%=      5-min Rain = 0
KGU1 150118Z 01003KT 06/M08 A3032 RMK A01 T00611077  RH  037%=      5-min Rain = 0
KGU1 150119Z 01003KT 06/M08 A3032 RMK A01 T00611076  RH  037%=      5-min Rain = 0
KGU1 150120Z 01004KT 06/M08 A3032 RMK A01 T00601076  RH  037%=      5-min Rain = 0
KGU1 150121Z 01003KT 06/M08 A3032 RMK A01 T00591076  RH  038%=      5-min Rain = 0
KGU1 150122Z 01004KT 06/M08 A3032 RMK A01 T00591076  RH  038%=      5-min Rain = 0
KGU1 150123Z 01004KT 06/M08 A3032 RMK A01 T00581076  RH  038%=      5-min Rain = 0
KGU1 150124Z 01003KT 06/M08 A3032 RMK A01 T00591076  RH  038%=      5-min Rain = 0
KGU1 150125Z 01003KT 06/M08 A3032 RMK A01 T00591076  RH  038%=      5-min Rain = 0
KGU1 150126Z 01003KT 06/M08 A3032 RMK A01 T00591077  RH  037%=      5-min Rain = 0
KGU1 150127Z 00002KT 06/M08 A3032 RMK A01 T00591076  RH  037%=      5-min Rain = 0
KGU1 150128Z 00002KT 06/M08 A3032 RMK A01 T00591076  RH  038%=      5-min Rain = 0
KGU1 150129Z 00002KT 06/M08 A3032 RMK A01 T00581076  RH  038%=      5-min Rain = 0
KGU1 150130Z 00002KT 06/M08 A3032 RMK A01 T00581076  RH  038%=      5-min Rain = 0
KGU1 150131Z 00002KT 06/M08 A3032 RMK A01 T00581076  RH  038%=      5-min Rain = 0
KGU1 150132Z 00001KT 06/M08 A3032 RMK A01 T00581076  RH  038%=      5-min Rain = 0
KGU1 150133Z 00001KT 06/M08 A3032 RMK A01 T00581075  RH  038%=      5-min Rain = 0
KGU1 150134Z 00001KT 06/M07 A3032 RMK A01 T00571074  RH  039%=      5-min Rain = 0
KGU1 150135Z 00001KT 06/M07 A3032 RMK A01 T00561074  RH  039%=      5-min Rain = 0
KGU1 150136Z 35002KT 06/M07 A3032 RMK A01 T00551073  RH  040%=      5-min Rain = 0
KGU1 150137Z 33002KT 05/M07 A3032 RMK A01 T00541072  RH  040%=      5-min Rain = 0
KGU1 150138Z 33003KT 05/M07 A3032 RMK A01 T00531073  RH  040%=      5-min Rain = 0
KGU1 150139Z 34003KT 05/M07 A3032 RMK A01 T00531072  RH  040%=      5-min Rain = 0
KGU1 150140Z 34003KT 05/M07 A3032 RMK A01 T00531071  RH  041%=      5-min Rain = 0
KGU1 150141Z 34003KT 05/M07 A3032 RMK A01 T00521071  RH  041%=      5-min Rain = 0
KGU1 150142Z 34003KT 05/M07 A3032 RMK A01 T00521071  RH  041%=      5-min Rain = 0
KGU1 150143Z 35002KT 05/M07 A3032 RMK A01 T00511071  RH  042%=      5-min Rain = 0
KGU1 150144Z 35002KT 05/M07 A3032 RMK A01 T00501069  RH  042%=      5-min Rain = 0
KGU1 150145Z 35002KT 05/M07 A3032 RMK A01 T00491069  RH  043%=      5-min Rain = 0
KGU1 150146Z 35002KT 05/M07 A3032 RMK A01 T00481069  RH  043%=      5-min Rain = 0
KGU1 150147Z 34002KT 05/M07 A3032 RMK A01 T00481069  RH  043%=      5-min Rain = 0
KGU1 150148Z 34002KT 05/M07 A3032 RMK A01 T00471067  RH  044%=      5-min Rain = 0
KGU1 150149Z 34002KT 05/M07 A3032 RMK A01 T00451067  RH  045%=      5-min Rain = 0
KGU1 150150Z 35003KT 04/M07 A3032 RMK A01 T00441067  RH  045%=      5-min Rain = 0
KGU1 150151Z 33003KT 04/M07 A3032 RMK A01 T00441067  RH  045%=      5-min Rain = 0
KGU1 150152Z 33003KT 05/M07 A3032 RMK A01 T00451067  RH  044%=      5-min Rain = 0
KGU1 150153Z 32003KT 04/M07 A3032 RMK A01 T00441066  RH  045%=      5-min Rain = 0
KGU1 150154Z 32002KT 04/M07 A3032 RMK A01 T00431065  RH  046%=      5-min Rain = 0
KGU1 150155Z 32002KT 04/M06 A3032 RMK A01 T00421064  RH  046%=      5-min Rain = 0
KGU1 150156Z 32002KT 04/M06 A3032 RMK A01 T00411064  RH  047%=      5-min Rain = 0
KGU1 150157Z 32002KT 04/M07 A3032 RMK A01 T00411065  RH  047%=      5-min Rain = 0
KGU1 150158Z 32001KT 04/M06 A3032 RMK A01 T00411064  RH  047%=      5-min Rain = 0
KGU1 150159Z 32002KT 04/M07 A3032 RMK A01 T00401066  RH  046%=      5-min Rain = 0
KGU1 150200Z 32001KT 04/M07 A3032 RMK A01 T00401067  RH  046%=      5-min Rain = 0
KGU1 150201Z 32001KT 04/M07 A3032 RMK A01 T00401068  RH  046%=      5-min Rain = 0
KGU1 150202Z 32001KT 04/M07 A3032 RMK A01 T00401068  RH  046%=      5-min Rain = 0
KGU1 150203Z 32001KT 04/M07 A3032 RMK A01 T00401069  RH  045%=      5-min Rain = 0
KGU1 150204Z 32001KT 04/M07 A3032 RMK A01 T00401068  RH  046%=      5-min Rain = 0
KGU1 150205Z 32001KT 04/M07 A3032 RMK A01 T00401069  RH  046%=      5-min Rain = 0
KGU1 150206Z 32001KT 04/M07 A3032 RMK A01 T00391069  RH  046%=      5-min Rain = 0
KGU1 150207Z 32001KT 04/M07 A3032 RMK A01 T00381068  RH  046%=      5-min Rain = 0
KGU1 150208Z 32002KT 04/M07 A3032 RMK A01 T00361068  RH  047%=      5-min Rain = 0
KGU1 150209Z 31003KT 04/M07 A3032 RMK A01 T00351068  RH  047%=      5-min Rain = 0
KGU1 150210Z 30003KT 03/M07 A3032 RMK A01 T00341068  RH  048%=      5-min Rain = 0
KGU1 150211Z 31003KT 03/M07 A3032 RMK A01 T00321068  RH  048%=      5-min Rain = 0
KGU1 150212Z 31003KT 03/M07 A3032 RMK A01 T00321068  RH  048%=      5-min Rain = 0
KGU1 150213Z 30003KT 03/M07 A3032 RMK A01 T00321068  RH  048%=      5-min Rain = 0
KGU1 150214Z 30004KT 03/M07 A3032 RMK A01 T00331067  RH  048%=      5-min Rain = 0
KGU1 150215Z 31004KT 03/M07 A3032 RMK A01 T00331066  RH  049%=      5-min Rain = 0
KGU1 150216Z 32004KT 03/M07 A3032 RMK A01 T00331065  RH  049%=      5-min Rain = 0
KGU1 150217Z 32004KT 03/M06 A3032 RMK A01 T00331064  RH  050%=      5-min Rain = 0
KGU1 150218Z 32004KT 03/M06 A3032 RMK A01 T00321063  RH  050%=      5-min Rain = 0
KGU1 150219Z 33003KT 03/M06 A3032 RMK A01 T00311062  RH  051%=      5-min Rain = 0
KGU1 150220Z 33003KT 03/M06 A3032 RMK A01 T00311063  RH  051%=      5-min Rain = 0
KGU1 150221Z 33002KT 03/M06 A3032 RMK A01 T00311064  RH  050%=      5-min Rain = 0
KGU1 150222Z 32002KT 03/M07 A3032 RMK A01 T00321065  RH  049%=      5-min Rain = 0
KGU1 150223Z 31002KT 03/M07 A3032 RMK A01 T00331066  RH  049%=      5-min Rain = 0
KGU1 150224Z 31003KT 03/M07 A3032 RMK A01 T00331066  RH  049%=      5-min Rain = 0
KGU1 150225Z 30003KT 03/M07 A3032 RMK A01 T00321067  RH  049%=      5-min Rain = 0
KGU1 150226Z 30004KT 03/M07 A3032 RMK A01 T00321067  RH  049%=      5-min Rain = 0
KGU1 150227Z 29004KT 03/M07 A3032 RMK A01 T00311067  RH  049%=      5-min Rain = 0
KGU1 150228Z 29004KT 03/M07 A3032 RMK A01 T00301067  RH  049%=      5-min Rain = 0
KGU1 150229Z 29004KT 03/M07 A3032 RMK A01 T00291068  RH  049%=      5-min Rain = 0
KGU1 150230Z 29004KT 03/M07 A3032 RMK A01 T00291068  RH  049%=      5-min Rain = 0
KGU1 150231Z 29004KT 03/M07 A3032 RMK A01 T00291068  RH  050%=      5-min Rain = 0
KGU1 150232Z 29004KT 03/M07 A3032 RMK A01 T00281068  RH  050%=      5-min Rain = 0
KGU1 150233Z 29004KT 03/M07 A3032 RMK A01 T00281068  RH  050%=      5-min Rain = 0
KGU1 150234Z 29004KT 03/M07 A3032 RMK A01 T00271068  RH  050%=      5-min Rain = 0
KGU1 150235Z 29005KT 03/M07 A3032 RMK A01 T00271068  RH  050%=      5-min Rain = 0
KGU1 150236Z 29004KT 03/M07 A3032 RMK A01 T00271068  RH  050%=      5-min Rain = 0
KGU1 150237Z 29005KT 03/M07 A3032 RMK A01 T00271068  RH  050%=      5-min Rain = 0
KGU1 150238Z 29004KT 03/M07 A3032 RMK A01 T00271068  RH  050%=      5-min Rain = 0
KGU1 150239Z 29005KT 03/M07 A3032 RMK A01 T00271068  RH  050%=      5-min Rain = 0
KGU1 150240Z 29005KT 03/M07 A3032 RMK A01 T00271068  RH  050%=      5-min Rain = 0
KGU1 150241Z 29004KT 03/M07 A3032 RMK A01 T00271068  RH  050%=      5-min Rain = 0
KGU1 150242Z 29004KT 03/M07 A3032 RMK A01 T00271068  RH  050%=      5-min Rain = 0
KGU1 150243Z 29004KT 03/M07 A3032 RMK A01 T00271068  RH  050%=      5-min Rain = 0
KGU1 150244Z 29004KT 03/M07 A3031 RMK A01 T00271069  RH  050%=      5-min Rain = 0
KGU1 150245Z 29003KT 03/M07 A3031 RMK A01 T00271069  RH  050%=      5-min Rain = 0
KGU1 150246Z 29003KT 03/M07 A3031 RMK A01 T00271069  RH  050%=      5-min Rain = 0
KGU1 150247Z 29003KT 03/M07 A3031 RMK A01 T00271069  RH  050%=      5-min Rain = 0
KGU1 150248Z 29004KT 03/M07 A3031 RMK A01 T00271069  RH  050%=      5-min Rain = 0
KGU1 150249Z 29003KT 03/M07 A3031 RMK A01 T00271070  RH  050%=      5-min Rain = 0
KGU1 150250Z 29003KT 03/M07 A3031 RMK A01 T00271069  RH  049%=      5-min Rain = 0
KGU1 150251Z 29002KT 03/M07 A3031 RMK A01 T00281070  RH  049%=      5-min Rain = 0
KGU1 150252Z 29002KT 03/M07 A3031 RMK A01 T00291070  RH  049%=      5-min Rain = 0
KGU1 150253Z 29002KT 03/M07 A3031 RMK A01 T00311072  RH  047%=      5-min Rain = 0
KGU1 150254Z 29002KT 03/M07 A3031 RMK A01 T00331072  RH  046%=      5-min Rain = 0
KGU1 150255Z 28002KT 04/M07 A3031 RMK A01 T00351074  RH  045%=      5-min Rain = 0
KGU1 150256Z 27003KT 04/M08 A3031 RMK A01 T00381078  RH  043%=      5-min Rain = 0
KGU1 150257Z 27002KT 04/M08 A3031 RMK A01 T00421079  RH  041%=      5-min Rain = 0
KGU1 150258Z 27002KT 05/M08 A3031 RMK A01 T00451079  RH  041%=      5-min Rain = 0
KGU1 150259Z 27003KT 05/M08 A3031 RMK A01 T00461078  RH  041%=      5-min Rain = 0
KGU1 150300Z 27002KT 05/M08 A3031 RMK A01 T00461077  RH  041%=      5-min Rain = 0
KGU1 150301Z 27001KT 05/M08 A3031 RMK A01 T00451077  RH  041%=      5-min Rain = 0
KGU1 150302Z 27000KT 04/M08 A3031 RMK A01 T00441076  RH  042%=      5-min Rain = 0
KGU1 150303Z 27002KT 04/M07 A3031 RMK A01 T00421074  RH  043%=      5-min Rain = 0
KGU1 150304Z 27001KT 04/M07 A3031 RMK A01 T00391073  RH  044%=      5-min Rain = 0
KGU1 150305Z 00000KT 04/M07 A3031 RMK A01 T00381073  RH  045%=      5-min Rain = 0
KGU1 150306Z 00000KT 04/M07 A3031 RMK A01 T00391073  RH  044%=      5-min Rain = 0
KGU1 150307Z 27000KT 04/M07 A3031 RMK A01 T00401073  RH  044%=      5-min Rain = 0
KGU1 150308Z 00000KT 04/M07 A3031 RMK A01 T00411074  RH  043%=      5-min Rain = 0
KGU1 150309Z 00000KT 04/M08 A3031 RMK A01 T00431077  RH  042%=      5-min Rain = 0
KGU1 150310Z 00000KT 05/M08 A3031 RMK A01 T00461079  RH  040%=      5-min Rain = 0
KGU1 150311Z 00000KT 05/M08 A3031 RMK A01 T00501080  RH  039%=      5-min Rain = 0
KGU1 150312Z 27000KT 05/M08 A3031 RMK A01 T00521079  RH  039%=      5-min Rain = 0
KGU1 150313Z 27000KT 05/M08 A3031 RMK A01 T00541080  RH  038%=      5-min Rain = 0
KGU1 150314Z 27000KT 06/M08 A3031 RMK A01 T00551079  RH  038%=      5-min Rain = 0
KGU1 150315Z 00000KT 06/M08 A3031 RMK A01 T00551078  RH  038%=      5-min Rain = 0
KGU1 150316Z 00000KT 06/M08 A3031 RMK A01 T00551079  RH  038%=      5-min Rain = 0
KGU1 150317Z 27000KT 05/M08 A3031 RMK A01 T00541078  RH  039%=      5-min Rain = 0
KGU1 150318Z 27000KT 05/M08 A3031 RMK A01 T00531079  RH  038%=      5-min Rain = 0
KGU1 150319Z 27000KT 05/M08 A3031 RMK A01 T00541080  RH  038%=      5-min Rain = 0
KGU1 150320Z 27001KT 06/M08 A3031 RMK A01 T00551080  RH  037%=      5-min Rain = 0
KGU1 150321Z 27001KT 06/M08 A3031 RMK A01 T00561081  RH  037%=      5-min Rain = 0
KGU1 150322Z 27001KT 06/M08 A3031 RMK A01 T00581082  RH  036%=      5-min Rain = 0
KGU1 150323Z 27001KT 06/M08 A3031 RMK A01 T00601082  RH  036%=      5-min Rain = 0
KGU1 150324Z 27002KT 06/M08 A3031 RMK A01 T00621082  RH  035%=      5-min Rain = 0
KGU1 150325Z 27002KT 06/M08 A3031 RMK A01 T00621081  RH  036%=      5-min Rain = 0
KGU1 150326Z 27002KT 06/M08 A3031 RMK A01 T00591078  RH  037%=      5-min Rain = 0
KGU1 150327Z 28003KT 06/M08 A3031 RMK A01 T00561077  RH  038%=      5-min Rain = 0
KGU1 150328Z 28003KT 05/M08 A3031 RMK A01 T00541076  RH  039%=      5-min Rain = 0
KGU1 150329Z 26003KT 05/M08 A3031 RMK A01 T00511076  RH  040%=      5-min Rain = 0
KGU1 150330Z 26005KT 05/M08 A3031 RMK A01 T00491076  RH  040%=      5-min Rain = 0
KGU1 150331Z 26007KT 05/M08 A3031 RMK A01 T00471075  RH  041%=      5-min Rain = 0
KGU1 150332Z 27007KT 05/M08 A3031 RMK A01 T00451075  RH  042%=      5-min Rain = 0
KGU1 150333Z 27007KT 04/M08 A3031 RMK A01 T00431076  RH  042%=      5-min Rain = 0
KGU1 150334Z 27007KT 04/M08 A303 RMK A01 T00431078  RH  042%=      5-min Rain = 0
KGU1 150335Z 27006KT 04/M08 A303 RMK A01 T00441080  RH  041%=      5-min Rain = 0
KGU1 150336Z 27006KT 04/M08 A303 RMK A01 T00441080  RH  041%=      5-min Rain = 0
KGU1 150337Z 26006KT 05/M08 A303 RMK A01 T00451080  RH  040%=      5-min Rain = 0
KGU1 150338Z 26007KT 04/M08 A303 RMK A01 T00441080  RH  041%=      5-min Rain = 0
KGU1 150339Z 26007KT 05/M08 A303 RMK A01 T00451079  RH  041%=      5-min Rain = 0
KGU1 150340Z 26006KT 05/M08 A303 RMK A01 T00451079  RH  040%=      5-min Rain = 0
KGU1 150341Z 26006KT 04/M08 A303 RMK A01 T00441079  RH  041%=      5-min Rain = 0
KGU1 150342Z 26007KT 04/M08 A303 RMK A01 T00431077  RH  042%=      5-min Rain = 0
KGU1 150343Z 26007KT 04/M08 A303 RMK A01 T00411076  RH  043%=      5-min Rain = 0
KGU1 150344Z 26007KT 04/M08 A303 RMK A01 T00401075  RH  043%=      5-min Rain = 0
KGU1 150345Z 26007KT 04/M07 A303 RMK A01 T00391074  RH  044%=      5-min Rain = 0
KGU1 150346Z 25007KT 04/M07 A303 RMK A01 T00391072  RH  045%=      5-min Rain = 0
KGU1 150347Z 26007KT 04/M07 A303 RMK A01 T00381072  RH  045%=      5-min Rain = 0
KGU1 150348Z 26007KT 04/M07 A303 RMK A01 T00381072  RH  045%=      5-min Rain = 0
KGU1 150349Z 26007KT 04/M07 A303 RMK A01 T00391071  RH  045%=      5-min Rain = 0
KGU1 150350Z 27007KT 04/M07 A303 RMK A01 T00401071  RH  045%=      5-min Rain = 0
KGU1 150351Z 27007KT 04/M07 A303 RMK A01 T00411071  RH  044%=      5-min Rain = 0
KGU1 150352Z 26007KT 04/M07 A303 RMK A01 T00411071  RH  044%=      5-min Rain = 0
KGU1 150353Z 27007KT 04/M07 A303 RMK A01 T00421071  RH  044%=      5-min Rain = 0
KGU1 150354Z 27008KT 04/M07 A303 RMK A01 T00421070  RH  044%=      5-min Rain = 0
KGU1 150355Z 28008KT 04/M07 A303 RMK A01 T00421071  RH  044%=      5-min Rain = 0
KGU1 150356Z 28008KT 04/M07 A303 RMK A01 T00441071  RH  044%=      5-min Rain = 0
KGU1 150357Z 27008KT 05/M07 A303 RMK A01 T00451072  RH  043%=      5-min Rain = 0
KGU1 150358Z 28008KT 05/M07 A303 RMK A01 T00471073  RH  042%=      5-min Rain = 0
KGU1 150359Z 28007KT 05/M07 A303 RMK A01 T00481074  RH  042%=      5-min Rain = 0
KGU1 150400Z 27008KT 05/M08 A303 RMK A01 T00481076  RH  040%=      5-min Rain = 0
KGU1 150401Z 28008KT 05/M08 A303 RMK A01 T00491076  RH  040%=      5-min Rain = 0
KGU1 150402Z 28008KT 05/M08 A303 RMK A01 T00501082  RH  038%=      5-min Rain = 0
KGU1 150403Z 28007KT 05/M08 A303 RMK A01 T00521084  RH  037%=      5-min Rain = 0
KGU1 150404Z 28008KT 05/M09 A303 RMK A01 T00521085  RH  037%=      5-min Rain = 0
KGU1 150405Z 28008KT 05/M09 A303 RMK A01 T00521085  RH  037%=      5-min Rain = 0
KGU1 150406Z 28007KT 05/M09 A303 RMK A01 T00521087  RH  036%=      5-min Rain = 0
KGU1 150407Z 28007KT 05/M09 A303 RMK A01 T00531087  RH  036%=      5-min Rain = 0
KGU1 150408Z 28007KT 05/M09 A303 RMK A01 T00531086  RH  036%=      5-min Rain = 0
KGU1 150409Z 28007KT 05/M09 A303 RMK A01 T00531085  RH  037%=      5-min Rain = 0
KGU1 150410Z 28008KT 05/M09 A303 RMK A01 T00521085  RH  037%=      5-min Rain = 0
KGU1 150411Z 28007KT 05/M09 A303 RMK A01 T00521085  RH  037%=      5-min Rain = 0
KGU1 150412Z 27007KT 05/M09 A303 RMK A01 T00521086  RH  037%=      5-min Rain = 0
KGU1 150413Z 27007KT 05/M08 A303 RMK A01 T00521084  RH  037%=      5-min Rain = 0
KGU1 150414Z 27007KT 05/M08 A303 RMK A01 T00521081  RH  038%=      5-min Rain = 0
KGU1 150415Z 27007KT 05/M08 A303 RMK A01 T00531079  RH  038%=      5-min Rain = 0
KGU1 150416Z 27007KT 05/M08 A303 RMK A01 T00531077  RH  039%=      5-min Rain = 0
KGU1 150417Z 27007KT 05/M08 A303 RMK A01 T00531076  RH  039%=      5-min Rain = 0
KGU1 150418Z 26006KT 05/M08 A303 RMK A01 T00521076  RH  040%=      5-min Rain = 0
KGU1 150419Z 26007KT 05/M08 A303 RMK A01 T00511075  RH  040%=      5-min Rain = 0
KGU1 150420Z 26006KT 05/M07 A303 RMK A01 T00511074  RH  040%=      5-min Rain = 0
KGU1 150421Z 26006KT 05/M07 A303 RMK A01 T00501074  RH  041%=      5-min Rain = 0
KGU1 150422Z 26007KT 05/M07 A303 RMK A01 T00491074  RH  041%=      5-min Rain = 0
KGU1 150423Z 26006KT 05/M07 A303 RMK A01 T00481074  RH  041%=      5-min Rain = 0
KGU1 150424Z 25007KT 05/M07 A303 RMK A01 T00481074  RH  041%=      5-min Rain = 0
KGU1 150425Z 25007KT 05/M07 A303 RMK A01 T00461074  RH  042%=      5-min Rain = 0
KGU1 150426Z 25007KT 05/M07 A303 RMK A01 T00451074  RH  042%=      5-min Rain = 0
KGU1 150427Z 25007KT 05/M07 A303 RMK A01 T00451073  RH  043%=      5-min Rain = 0
KGU1 150428Z 25007KT 05/M07 A303 RMK A01 T00451073  RH  043%=      5-min Rain = 0
KGU1 150429Z 25007KT 05/M07 A303 RMK A01 T00481073  RH  042%=      5-min Rain = 0
KGU1 150430Z 25007KT 05/M08 A303 RMK A01 T00511075  RH  040%=      5-min Rain = 0
KGU1 150431Z 25007KT 05/M08 A303 RMK A01 T00541076  RH  039%=      5-min Rain = 0
KGU1 150432Z 25007KT 06/M08 A303 RMK A01 T00571076  RH  038%=      5-min Rain = 0
KGU1 150433Z 25008KT 06/M08 A303 RMK A01 T00611079  RH  037%=      5-min Rain = 0
KGU1 150434Z 25007KT 07/M08 A303 RMK A01 T00651080  RH  035%=      5-min Rain = 0
KGU1 150435Z 25007KT 07/M08 A303 RMK A01 T00681081  RH  034%=      5-min Rain = 0
KGU1 150436Z 25007KT 07/M08 A303 RMK A01 T00711081  RH  033%=      5-min Rain = 0
KGU1 150437Z 25007KT 07/M08 A303 RMK A01 T00731080  RH  033%=      5-min Rain = 0
KGU1 150438Z 24008KT 07/M08 A303 RMK A01 T00741080  RH  033%=      5-min Rain = 0
KGU1 150439Z 24008KT 08/M08 A303 RMK A01 T00751080  RH  033%=      5-min Rain = 0
KGU1 150440Z 24008KT 08/M08 A303 RMK A01 T00761080  RH  033%=      5-min Rain = 0
KGU1 150441Z 24009KT 08/M08 A303 RMK A01 T00771080  RH  032%=      5-min Rain = 0
KGU1 150442Z 24008KT 08/M08 A303 RMK A01 T00791080  RH  032%=      5-min Rain = 0
KGU1 150443Z 24008KT 08/M08 A303 RMK A01 T00801081  RH  032%=      5-min Rain = 0
KGU1 150444Z 24008KT 08/M08 A303 RMK A01 T00811080  RH  031%=      5-min Rain = 0
KGU1 150445Z 24008KT 08/M08 A303 RMK A01 T00811081  RH  031%=      5-min Rain = 0
KGU1 150446Z 24008KT 08/M08 A303 RMK A01 T00831082  RH  031%=      5-min Rain = 0
KGU1 150447Z 23007KT 08/M08 A303 RMK A01 T00841082  RH  030%=      5-min Rain = 0
KGU1 150448Z 23007KT 09/M08 A303 RMK A01 T00851082  RH  030%=      5-min Rain = 0
KGU1 150449Z 24007KT 09/M08 A303 RMK A01 T00851082  RH  030%=      5-min Rain = 0
KGU1 150450Z 24007KT 09/M08 A303 RMK A01 T00861082  RH  030%=      5-min Rain = 0
KGU1 150451Z 23007KT 09/M08 A303 RMK A01 T00861082  RH  030%=      5-min Rain = 0
KGU1 150452Z 24006KT 09/M08 A303 RMK A01 T00861082  RH  030%=      5-min Rain = 0
KGU1 150453Z 23006KT 09/M08 A303 RMK A01 T00851082  RH  030%=      5-min Rain = 0
KGU1 150454Z 23006KT 09/M08 A303 RMK A01 T00851082  RH  030%=      5-min Rain = 0
KGU1 150455Z 24006KT 09/M08 A303 RMK A01 T00851083  RH  030%=      5-min Rain = 0
KGU1 150456Z 24007KT 09/M08 A303 RMK A01 T00861083  RH  030%=      5-min Rain = 0
KGU1 150457Z 24007KT 09/M08 A303 RMK A01 T00861082  RH  030%=      5-min Rain = 0
KGU1 150458Z 24006KT 09/M08 A303 RMK A01 T00851081  RH  030%=      5-min Rain = 0
KGU1 150459Z 23006KT 08/M08 A303 RMK A01 T00841080  RH  031%=      5-min Rain = 0
KGU1 150500Z 23006KT 08/M08 A303 RMK A01 T00821081  RH  031%=      5-min Rain = 0
KGU1 150501Z 23006KT 08/M08 A303 RMK A01 T00821082  RH  031%=      5-min Rain = 0
KGU1 150502Z 23006KT 08/M08 A303 RMK A01 T00831082  RH  031%=      5-min Rain = 0
KGU1 150503Z 23007KT 08/M08 A303 RMK A01 T00841083  RH  030%=      5-min Rain = 0
KGU1 150504Z 23006KT 09/M08 A303 RMK A01 T00851083  RH  030%=      5-min Rain = 0
KGU1 150505Z 23005KT 09/M08 A303 RMK A01 T00861082  RH  030%=      5-min Rain = 0
KGU1 150506Z 23006KT 09/M08 A303 RMK A01 T00851082  RH  030%=      5-min Rain = 0
KGU1 150507Z 23006KT 09/M08 A303 RMK A01 T00851083  RH  030%=      5-min Rain = 0
KGU1 150508Z 24006KT 09/M08 A303 RMK A01 T00861083  RH  030%=      5-min Rain = 0
KGU1 150509Z 25007KT 09/M08 A303 RMK A01 T00861082  RH  030%=      5-min Rain = 0
KGU1 150510Z 24007KT 09/M08 A303 RMK A01 T00861083  RH  030%=      5-min Rain = 0
KGU1 150511Z 25007KT 09/M08 A303 RMK A01 T00861082  RH  030%=      5-min Rain = 0
KGU1 150512Z 25007KT 08/M08 A303 RMK A01 T00841081  RH  031%=      5-min Rain = 0
KGU1 150513Z 25007KT 08/M08 A303 RMK A01 T00821081  RH  031%=      5-min Rain = 0
KGU1 150514Z 25007KT 08/M08 A303 RMK A01 T00811082  RH  031%=      5-min Rain = 0
KGU1 150515Z 24007KT 08/M08 A303 RMK A01 T00801082  RH  031%=      5-min Rain = 0
KGU1 150516Z 25007KT 08/M08 A303 RMK A01 T00811082  RH  031%=      5-min Rain = 0
KGU1 150517Z 24007KT 08/M08 A303 RMK A01 T00811083  RH  031%=      5-min Rain = 0
KGU1 150518Z 24007KT 08/M08 A303 RMK A01 T00811083  RH  031%=      5-min Rain = 0
KGU1 150519Z 24007KT 08/M08 A303 RMK A01 T00821084  RH  030%=      5-min Rain = 0
KGU1 150520Z 23005KT 08/M08 A303 RMK A01 T00831083  RH  030%=      5-min Rain = 0
KGU1 150521Z 23006KT 08/M08 A303 RMK A01 T00831083  RH  030%=      5-min Rain = 0
KGU1 150522Z 23006KT 08/M08 A303 RMK A01 T00831083  RH  030%=      5-min Rain = 0
KGU1 150523Z 24006KT 08/M08 A303 RMK A01 T00821083  RH  030%=      5-min Rain = 0
KGU1 150524Z 24006KT 08/M08 A303 RMK A01 T00831083  RH  030%=      5-min Rain = 0
KGU1 150525Z 24006KT 08/M08 A303 RMK A01 T00821083  RH  031%=      5-min Rain = 0
KGU1 150526Z 25007KT 08/M08 A303 RMK A01 T00821083  RH  030%=      5-min Rain = 0
KGU1 150527Z 25007KT 08/M08 A303 RMK A01 T00821083  RH  030%=      5-min Rain = 0
KGU1 150528Z 25006KT 08/M08 A303 RMK A01 T00821084  RH  030%=      5-min Rain = 0
KGU1 150529Z 25006KT 08/M08 A303 RMK A01 T00831083  RH  030%=      5-min Rain = 0
KGU1 150530Z 25006KT 08/M08 A303 RMK A01 T00831083  RH  030%=      5-min Rain = 0
KGU1 150531Z 24005KT 08/M08 A303 RMK A01 T00821082  RH  031%=      5-min Rain = 0
KGU1 150532Z 24005KT 08/M08 A303 RMK A01 T00811082  RH  031%=      5-min Rain = 0
KGU1 150533Z 24005KT 08/M08 A303 RMK A01 T00801082  RH  031%=      5-min Rain = 0
KGU1 150534Z 24005KT 08/M08 A303 RMK A01 T00791082  RH  031%=      5-min Rain = 0
KGU1 150535Z 24005KT 08/M08 A303 RMK A01 T00781082  RH  031%=      5-min Rain = 0
KGU1 150536Z 24005KT 08/M08 A303 RMK A01 T00781083  RH  031%=      5-min Rain = 0
KGU1 150537Z 24004KT 08/M08 A303 RMK A01 T00771083  RH  032%=      5-min Rain = 0
KGU1 150538Z 24004KT 08/M08 A303 RMK A01 T00771083  RH  032%=      5-min Rain = 0
KGU1 150539Z 26002KT 08/M08 A303 RMK A01 T00761082  RH  032%=      5-min Rain = 0
KGU1 150540Z 27000KT 07/M08 A303 RMK A01 T00741082  RH  033%=      5-min Rain = 0
KGU1 150541Z 03002KT 07/M08 A303 RMK A01 T00711081  RH  033%=      5-min Rain = 0
KGU1 150542Z 03003KT 07/M08 A303 RMK A01 T00681082  RH  034%=      5-min Rain = 0
KGU1 150543Z 04003KT 07/M08 A303 RMK A01 T00651081  RH  035%=      5-min Rain = 0
KGU1 150544Z 03003KT 06/M08 A303 RMK A01 T00621081  RH  036%=      5-min Rain = 0
KGU1 150545Z 03002KT 06/M08 A303 RMK A01 T00581081  RH  036%=      5-min Rain = 0
KGU1 150546Z 03001KT 06/M08 A303 RMK A01 T00561082  RH  037%=      5-min Rain = 0
KGU1 150547Z 00000KT 06/M08 A303 RMK A01 T00551081  RH  037%=      5-min Rain = 0
KGU1 150548Z 00000KT 06/M08 A303 RMK A01 T00551082  RH  037%=      5-min Rain = 0
KGU1 150549Z 01000KT 06/M08 A303 RMK A01 T00571082  RH  036%=      5-min Rain = 0
KGU1 150550Z 01002KT 06/M08 A303 RMK A01 T00581083  RH  036%=      5-min Rain = 0
KGU1 150551Z 01002KT 06/M08 A303 RMK A01 T00601083  RH  035%=      5-min Rain = 0
KGU1 150552Z 01001KT 06/M08 A303 RMK A01 T00611084  RH  035%=      5-min Rain = 0
KGU1 150553Z 01001KT 06/M08 A303 RMK A01 T00611084  RH  035%=      5-min Rain = 0
KGU1 150554Z 01001KT 06/M08 A303 RMK A01 T00611084  RH  035%=      5-min Rain = 0
KGU1 150555Z 01000KT 06/M08 A303 RMK A01 T00621084  RH  035%=      5-min Rain = 0
KGU1 150556Z 01001KT 06/M09 A303 RMK A01 T00611085  RH  035%=      5-min Rain = 0
KGU1 150557Z 01000KT 06/M08 A303 RMK A01 T00621084  RH  035%=      5-min Rain = 0
KGU1 150558Z 01000KT 06/M08 A303 RMK A01 T00611084  RH  035%=      5-min Rain = 0
KGU1 150559Z 27001KT 06/M09 A303 RMK A01 T00621085  RH  034%=      5-min Rain = 0

Page generated in 0.1258 seconds.